PORTS® Data Listing: 8452660 Newport, RI

CO-OPS RAW PORTS DATA

************************      PRELIMINARY DATA      ************************** 

     THIS RAW DATA HAS NOT BEEN SUBJECT TO THE NATIONAL OCEAN SERVICE'S        
     QUALITY CONTROL OR QUALITY ASSURANCE PROCEDURES AND DOES NOT MEET         
     THE CRITERIA AND STANDARDS OF OFFICIAL NATIONAL OCEAN SERVICE             
     DATA.  IT IS RELEASED FOR LIMITED PUBLIC USE AS PRELIMINARY DATA TO       
     BE USED ONLY WITH APPROPRIATE CAUTION.                                    

************************      PRELIMINARY DATA      ************************** 


       CD   -   Calendar date
       T    -   Time
       TZ   -   Timezone
       PW   -   Predicted water level (feet above MLLW)
       OW   -   Observed water level (feet above MLLW)
       WS   -   Wind speed (knots)
       WD   -   Wind direction (degrees true)
       WG   -   Wind gust (knots)
       AT   -   Air temperature (degrees farenheit)
       WT   -   Water temperature (degrees farenheit)
       AP   -   Air pressure (millibars)
       SA   -   Salinty (PSU - Practical Salinity Units)
       SG   -   Specific gravity
       RH   -   Relative humidity
       AG   -   Air gap (feet)
       VI   -   Visibility (nautical miles)

       ** NOTE **
       A variable that has its data fields filled with "9"s, indicates that
       data was not collected for that sample period.
       **********


STATION NAME: Newport (8452660)
****************************************************************************************************
    CD       T    TZ    PW     OW    WS   WD   WG    AT    WT    AP    SA    SG     RH    AG   VI
****************************************************************************************************
2019/12/03 12:42 EST    3.00   4.89   14  310   19  33.8  40.6  992.0 33.0  1.027 -99.9 -99.99 -9.99
2019/12/03 12:48 EST    3.00   4.84   12  292   18  33.6  40.6  992.0 33.0  1.027 -99.9 -99.99 -9.99
2019/12/03 12:54 EST    3.00   4.83   14  288   17  33.8  40.8  991.8 32.9  1.027 -99.9 -99.99 -9.99
2019/12/03 13:00 EST    3.00   4.85   14  289   21  34.0  40.6  991.8 33.0  1.027 -99.9 -99.99 -9.99
2019/12/03 13:06 EST    2.99   4.85   14  294   20  34.0  40.6  992.0 32.9  1.027 -99.9 -99.99 -9.99
2019/12/03 13:12 EST    2.97   4.78   13  298   20  34.2  40.6  992.0 32.9  1.027 -99.9 -99.99 -9.99
2019/12/03 13:18 EST    2.96   4.77   13  296   19  34.3  40.6  992.0 33.0  1.027 -99.9 -99.99 -9.99
2019/12/03 13:24 EST    2.94   4.70   14  288   20  34.3  40.8  991.9 33.0  1.027 -99.9 -99.99 -9.99
2019/12/03 13:30 EST    2.91   4.69   10  307   17  34.5  41.0  991.9 32.9  1.027 -99.9 -99.99 -9.99
2019/12/03 13:36 EST    2.88   4.60   12  291   16  34.7  41.0  991.9 32.9  1.027 -99.9 -99.99 -9.99
2019/12/03 13:42 EST    2.85   4.52   13  303   17  34.9  40.5  992.1 33.0  1.027 -99.9 -99.99 -9.99
2019/12/03 13:48 EST    2.81   4.55   14  300   18  35.2  40.3  992.1 32.9  1.027 -99.9 -99.99 -9.99
2019/12/03 13:54 EST    2.77   4.47   15  310   20  35.2  40.1  992.2 32.9  1.027 -99.9 -99.99 -9.99
2019/12/03 14:00 EST    2.73   4.38   14  310   20  35.4  40.5  992.3 33.0  1.027 -99.9 -99.99 -9.99
2019/12/03 14:06 EST    2.68   4.41   16  312   20  35.2  40.3  992.3 32.9  1.027 -99.9 -99.99 -9.99
2019/12/03 14:12 EST    2.63   4.34   15  310   21  35.6  40.1  992.3 33.0  1.027 -99.9 -99.99 -9.99
2019/12/03 14:18 EST    2.57   4.27   16  317   22  35.8  40.3  992.5 32.9  1.027 -99.9 -99.99 -9.99
2019/12/03 14:24 EST    2.52   4.20   13  308   18  35.8  40.3  992.6 32.9  1.027 -99.9 -99.99 -9.99
2019/12/03 14:30 EST    2.46   4.14   12  308   20  36.0  40.3  992.6 32.9  1.027 -99.9 -99.99 -9.99
2019/12/03 14:36 EST    2.40   4.04   15  301   23  36.1  40.1  992.8 33.0  1.027 -99.9 -99.99 -9.99
2019/12/03 14:42 EST    2.33   3.90   12  297   20  36.1  40.1  992.8 33.0  1.027 -99.9 -99.99 -9.99
2019/12/03 14:48 EST    2.26   3.86   13  305   17  36.3  40.3  992.9 32.9  1.027 -99.9 -99.99 -9.99
2019/12/03 14:54 EST    2.20   3.84   14  309   19  36.5  40.3  993.0 32.9  1.027 -99.9 -99.99 -9.99
2019/12/03 15:00 EST    2.13   3.72   17  314   21  36.7  40.3  993.0 32.9  1.027 -99.9 -99.99 -9.99
2019/12/03 15:06 EST    2.06   3.63   15  317   23  36.9  40.3  993.0 32.9  1.027 -99.9 -99.99 -9.99
2019/12/03 15:12 EST    1.98   3.58   16  324   21  36.9  40.3  993.3 32.9  1.027 -99.9 -99.99 -9.99
2019/12/03 15:18 EST    1.91   3.47   13  323   21  36.9  40.1  993.3 33.0  1.027 -99.9 -99.99 -9.99
2019/12/03 15:24 EST    1.84   3.40   14  319   23  36.9  40.1  993.4 33.0  1.027 -99.9 -99.99 -9.99
2019/12/03 15:30 EST    1.77   3.34   16  316   22  36.7  40.3  993.4 32.9  1.027 -99.9 -99.99 -9.99
2019/12/03 15:36 EST    1.70   3.18   12  332   24  36.9  40.3  993.4 32.9  1.027 -99.9 -99.99 -9.99
2019/12/03 15:42 EST    1.63   3.08   12  326   20  36.7  40.3  993.5 32.9  1.027 -99.9 -99.99 -9.99
2019/12/03 15:48 EST    1.56   3.04   12  327   22  36.9  40.3  993.7 32.9  1.027 -99.9 -99.99 -9.99
2019/12/03 15:54 EST    1.49   2.98   12  321   15  36.9  40.3  993.7 32.9  1.027 -99.9 -99.99 -9.99
2019/12/03 16:00 EST    1.42   2.90   15  320   18  36.7  40.3  993.8 32.9  1.027 -99.9 -99.99 -9.99
2019/12/03 16:06 EST    1.36   2.86   13  313   19  36.5  40.3  993.9 32.9  1.027 -99.9 -99.99 -9.99
2019/12/03 16:12 EST    1.29   2.81   13  310   18  36.9  40.3  994.0 32.9  1.027 -99.9 -99.99 -9.99
2019/12/03 16:18 EST    1.23   2.70   11  312   18  36.7  40.3  994.3 32.9  1.027 -99.9 -99.99 -9.99
2019/12/03 16:24 EST    1.18   2.61   11  305   16  36.7  40.3  994.3 32.9  1.027 -99.9 -99.99 -9.99
2019/12/03 16:30 EST    1.12   2.52   12  294   16  36.5  40.3  994.4 32.9  1.027 -99.9 -99.99 -9.99
2019/12/03 16:36 EST    1.07   2.44   11  298   19  36.3  40.3  994.4 32.9  1.027 -99.9 -99.99 -9.99
2019/12/03 16:42 EST    1.02   2.39    9  301   16  36.5  40.3  994.6 32.9  1.027 -99.9 -99.99 -9.99
2019/12/03 16:48 EST    0.98   2.31   13  290   16  36.1  40.3  994.6 32.9  1.027 -99.9 -99.99 -9.99
2019/12/03 16:54 EST    0.94   2.32   11  292   16  36.1  40.3  994.6 32.9  1.027 -99.9 -99.99 -9.99
2019/12/03 17:00 EST    0.90   2.27    9  303   17  36.1  40.3  994.7 33.0  1.027 -99.9 -99.99 -9.99
2019/12/03 17:06 EST    0.86   2.18   14  309   18  36.1  40.5  994.8 32.9  1.027 -99.9 -99.99 -9.99
2019/12/03 17:12 EST    0.83   2.14   12  310   18  36.3  40.5  994.9 32.9  1.027 -99.9 -99.99 -9.99
2019/12/03 17:18 EST    0.80   2.15   12  313   18  36.3  40.5  995.0 33.0  1.027 -99.9 -99.99 -9.99
2019/12/03 17:24 EST    0.78   2.06   12  317   16  36.3  40.5  995.1 33.0  1.027 -99.9 -99.99 -9.99
2019/12/03 17:30 EST    0.76   2.11   12  317   18  36.3  40.5  995.2 33.0  1.027 -99.9 -99.99 -9.99
2019/12/03 17:36 EST    0.74   2.04   13  309   16  36.3  40.5  995.4 33.0  1.027 -99.9 -99.99 -9.99
2019/12/03 17:42 EST    0.72   2.03   11  303   17  36.7  40.6  995.5 32.9  1.027 -99.9 -99.99 -9.99
2019/12/03 17:48 EST    0.71   2.01    9  299   15  36.3  40.6  995.6 33.0  1.027 -99.9 -99.99 -9.99
2019/12/03 17:54 EST    0.70   1.99    9  308   15  36.1  40.6  995.7 32.9  1.027 -99.9 -99.99 -9.99
2019/12/03 18:00 EST    0.69   2.02    9  301   15  36.1  40.6  995.8 33.0  1.027 -99.9 -99.99 -9.99
2019/12/03 18:06 EST    0.68   1.89   11  292   13  35.8  40.6  995.9 33.0  1.027 -99.9 -99.99 -9.99
2019/12/03 18:12 EST    0.68   1.92   10  292   14  35.6  40.6  996.0 33.0  1.027 -99.9 -99.99 -9.99
2019/12/03 18:18 EST    0.68   1.91   10  292   14  35.4  40.6  996.0 33.0  1.027 -99.9 -99.99 -9.99
2019/12/03 18:24 EST    0.68   1.85    8  303   14  35.2  40.6  996.0 33.0  1.027 -99.9 -99.99 -9.99
2019/12/03 18:30 EST    0.68   1.89    9  303   13  35.2  40.6  996.1 33.0  1.027 -99.9 -99.99 -9.99
2019/12/03 18:36 EST    0.68   1.86    8  304   11  35.1  40.6  996.1 33.0  1.027 -99.9 -99.99 -9.99
2019/12/03 18:42 EST    0.68   1.84   12  298   15  35.2  40.8  996.3 33.0  1.027 -99.9 -99.99 -9.99
2019/12/03 18:48 EST    0.69   1.81   10  305   17  35.1  40.8  996.3 33.0  1.027 -99.9 -99.99 -9.99
2019/12/03 18:54 EST    0.69   1.83   11  312   15  35.1  41.0  996.3 33.0  1.027 -99.9 -99.99 -9.99
2019/12/03 19:00 EST    0.70   1.83    8  300   15  35.1  41.0  996.5 33.0  1.027 -99.9 -99.99 -9.99
2019/12/03 19:06 EST    0.70   1.81    9  304   13  35.1  41.0  996.7 33.0  1.027 -99.9 -99.99 -9.99
2019/12/03 19:12 EST    0.71   1.92    9  298   12  34.9  41.2  996.8 32.9  1.027 -99.9 -99.99 -9.99
2019/12/03 19:18 EST    0.72   1.85   11  286   15  34.7  41.0  996.9 33.0  1.027 -99.9 -99.99 -9.99
2019/12/03 19:24 EST    0.73   1.89   11  278   14  34.5  41.0  997.0 33.0  1.027 -99.9 -99.99 -9.99
2019/12/03 19:30 EST    0.74   1.87   10  280   14  34.3  41.0  997.1 33.0  1.027 -99.9 -99.99 -9.99
2019/12/03 19:36 EST    0.75   1.87    9  283   12  34.0  41.2  997.2 32.9  1.027 -99.9 -99.99 -9.99
2019/12/03 19:42 EST    0.76   1.86    9  286   12  34.0  41.2  997.2 32.9  1.027 -99.9 -99.99 -9.99
2019/12/03 19:48 EST    0.77   1.76   12  274   14  34.2  41.2  997.3 32.9  1.027 -99.9 -99.99 -9.99
2019/12/03 19:54 EST    0.79   1.87   11  272   14  34.0  41.2  997.3 32.9  1.027 -99.9 -99.99 -9.99
2019/12/03 20:00 EST    0.80   1.82   10  281   14  34.0  41.2  997.3 32.9  1.027 -99.9 -99.99 -9.99
2019/12/03 20:06 EST    0.82   1.82    9  281   13  33.8  41.2  997.3 32.9  1.027 -99.9 -99.99 -9.99
2019/12/03 20:12 EST    0.83   1.87   11  283   14  33.8  41.2  997.3 32.9  1.027 -99.9 -99.99 -9.99
2019/12/03 20:18 EST    0.85   1.91   10  280   12  33.8  41.2  997.3 33.0  1.027 -99.9 -99.99 -9.99
2019/12/03 20:24 EST    0.87   1.95   10  281   15  33.6  41.2  997.3 32.9  1.027 -99.9 -99.99 -9.99
2019/12/03 20:30 EST    0.89   1.94   10  282   13  33.6  41.2  997.3 32.9  1.027 -99.9 -99.99 -9.99
2019/12/03 20:36 EST    0.92   2.01   11  286   15  33.3  41.0  997.2 33.0  1.027 -99.9 -99.99 -9.99
2019/12/03 20:42 EST    0.94   1.93   10  285   13  33.4  41.0  997.2 33.0  1.027 -99.9 -99.99 -9.99
2019/12/03 20:48 EST    0.97   2.05    9  302   12  33.4  41.0  997.1 33.0  1.027 -99.9 -99.99 -9.99
2019/12/03 20:54 EST    1.00   2.11   11  310   12  33.4  41.0  996.9 33.0  1.027 -99.9 -99.99 -9.99
2019/12/03 21:00 EST    1.02   2.02   11  313   14  33.8  41.0  996.9 33.0  1.027 -99.9 -99.99 -9.99
2019/12/03 21:06 EST    1.06   2.08   11  321   14  33.8  41.0  996.7 32.9  1.027 -99.9 -99.99 -9.99
2019/12/03 21:12 EST    1.09   2.15    8  335   13  34.0  41.0  996.6 32.9  1.027 -99.9 -99.99 -9.99
2019/12/03 21:18 EST    1.13   2.16    7  321   11  34.5  41.0  996.7 32.9  1.027 -99.9 -99.99 -9.99
2019/12/03 21:24 EST    1.16   2.19   12  316   15  35.1  41.0  997.0 32.9  1.027 -99.9 -99.99 -9.99
2019/12/03 21:30 EST    1.20   2.22   10  310   16  34.7  40.8  997.1 33.0  1.027 -99.9 -99.99 -9.99
2019/12/03 21:36 EST    1.24   2.30    8  301   11  34.3  40.8  997.1 33.0  1.027 -99.9 -99.99 -9.99
2019/12/03 21:42 EST    1.29   2.29   11  288   14  33.4  40.8  997.2 32.9  1.027 -99.9 -99.99 -9.99
2019/12/03 21:48 EST    1.33   2.40   11  288   15  33.3  40.8  997.2 32.9  1.027 -99.9 -99.99 -9.99
2019/12/03 21:54 EST    1.38   2.44   12  286   14  33.1  40.8  997.2 32.9  1.027 -99.9 -99.99 -9.99
2019/12/03 22:00 EST    1.43   2.39   12  280   16  32.9  40.8  997.3 32.9  1.027 -99.9 -99.99 -9.99
2019/12/03 22:06 EST    1.48   2.48   11  288   16  32.5  40.8  997.3 32.9  1.027 -99.9 -99.99 -9.99
2019/12/03 22:12 EST    1.53   2.62   10  295   15  32.7  40.8  997.4 32.9  1.027 -99.9 -99.99 -9.99
2019/12/03 22:18 EST    1.58   2.61    8  293   13  32.5  40.8  997.3 32.9  1.027 -99.9 -99.99 -9.99
2019/12/03 22:24 EST    1.64   2.65    8  298   12  32.5  40.8  997.4 32.9  1.027 -99.9 -99.99 -9.99
2019/12/03 22:30 EST    1.69   2.74    9  300   13  32.7  40.8  997.3 32.9  1.027 -99.9 -99.99 -9.99
2019/12/03 22:36 EST    1.75   2.85    8  307   12  32.7  40.8  997.4 32.9  1.027 -99.9 -99.99 -9.99
2019/12/03 22:42 EST    1.80   2.78    9  298   12  32.5  40.8  997.4 33.0  1.027 -99.9 -99.99 -9.99
2019/12/03 22:48 EST    1.86   2.89    7  302   11  32.7  40.8  997.5 33.0  1.027 -99.9 -99.99 -9.99
2019/12/03 22:54 EST    1.92   2.98    8  306   11  32.5  40.8  997.5 33.0  1.027 -99.9 -99.99 -9.99
2019/12/03 23:00 EST    1.98   2.94    8  291   12  32.4  40.8  997.7 33.0  1.027 -99.9 -99.99 -9.99
2019/12/03 23:06 EST    2.04   3.13    7  295   11  32.4  40.8  997.9 33.0  1.027 -99.9 -99.99 -9.99
2019/12/03 23:12 EST    2.10   3.14    9  286   11  32.2  40.8  997.9 33.0  1.027 -99.9 -99.99 -9.99
2019/12/03 23:18 EST    2.16   3.15    9  282   12  32.2  40.8  998.0 33.0  1.027 -99.9 -99.99 -9.99
2019/12/03 23:24 EST    2.21   3.40    9  284   12  32.0  40.8  998.1 32.9  1.027 -99.9 -99.99 -9.99
2019/12/03 23:30 EST    2.27   3.37   11  278   13  31.8  40.8  998.2 32.9  1.027 -99.9 -99.99 -9.99
2019/12/03 23:36 EST    2.33   3.37   10  281   14  31.5  40.8  998.3 32.9  1.027 -99.9 -99.99 -9.99
2019/12/03 23:42 EST    2.38   3.53   11  285   14  31.5  40.6  998.4 33.0  1.027 -99.9 -99.99 -9.99
2019/12/03 23:48 EST    2.43   3.48    8  291   15  31.6  40.6  998.4 32.9  1.027 -99.9 -99.99 -9.99
2019/12/03 23:54 EST    2.48   3.60   11  280   14  31.6  40.6  998.6 32.9  1.027 -99.9 -99.99 -9.99
2019/12/04 00:00 EST    2.53   3.66    9  292   13  31.5  40.6  998.6 32.9  1.027 -99.9 -99.99 -9.99
2019/12/04 00:06 EST    2.58   3.73    8  297   13  31.8  40.6  998.4 32.9  1.027 -99.9 -99.99 -9.99
2019/12/04 00:12 EST    2.62   3.72    9  296   14  31.6  40.6  998.5 32.9  1.027 -99.9 -99.99 -9.99
2019/12/04 00:18 EST    2.66   3.65    7  303   13  31.8  40.6  998.8 32.9  1.027 -99.9 -99.99 -9.99
2019/12/04 00:24 EST    2.70   3.83    9  287   13  31.8  40.6  998.8 32.9  1.027 -99.9 -99.99 -9.99
2019/12/04 00:30 EST    2.74   3.83    9  310   12  31.8  40.6  998.9 33.0  1.027 -99.9 -99.99 -9.99
2019/12/04 00:36 EST    2.77   3.75    8  308   12  31.8  40.6  998.9 33.0  1.027 -99.9 -99.99 -9.99
2019/12/04 00:42 EST    2.79   3.85    8  315   13  31.6  40.6  998.8 33.0  1.027 -99.9 -99.99 -9.99
2019/12/04 00:48 EST    2.82   3.88    6  312   14  31.8  40.6  999.0 33.0  1.027 -99.9 -99.99 -9.99
2019/12/04 00:54 EST    2.84   3.78    8  301   11  31.6  40.6  999.2 33.0  1.027 -99.9 -99.99 -9.99
2019/12/04 01:00 EST    2.85   3.90    8  298   12  31.6  40.6  999.1 33.0  1.027 -99.9 -99.99 -9.99
2019/12/04 01:06 EST    2.87   3.81    8  306   13  31.5  40.6  999.3 33.0  1.027 -99.9 -99.99 -9.99
2019/12/04 01:12 EST    2.87   3.85    7  308   10  31.5  40.6  999.3 33.0  1.027 -99.9 -99.99 -9.99
2019/12/04 01:18 EST    2.88   3.77    8  316   11  31.5  40.6  999.3 32.9  1.027 -99.9 -99.99 -9.99
2019/12/04 01:24 EST    2.88   3.76    7  304   10  31.5  39.0  999.3 32.5  1.027 -99.9 -99.99 -9.99
2019/12/04 01:30 EST    2.87   3.81    6  301   10  31.3  39.6  999.4 32.7  1.027 -99.9 -99.99 -9.99
2019/12/04 01:36 EST    2.87   3.77    8  312   10  31.5  40.1  999.4 32.8  1.027 -99.9 -99.99 -9.99
2019/12/04 01:42 EST    2.85   3.77    6  304   11  31.3  39.7  999.4 32.8  1.027 -99.9 -99.99 -9.99
2019/12/04 01:48 EST    2.84   3.77    5  301   10  31.1  39.7  999.5 32.8  1.027 -99.9 -99.99 -9.99
2019/12/04 01:54 EST    2.82   3.66    6  308   10  31.3  39.9  999.7 32.7  1.027 -99.9 -99.99 -9.99
2019/12/04 02:00 EST    2.79   3.62    6  304    9  31.1  39.9  999.7 32.7  1.027 -99.9 -99.99 -9.99
2019/12/04 02:06 EST    2.77   3.60    5  311   10  31.1  39.7  999.6 32.7  1.027 -99.9 -99.99 -9.99
2019/12/04 02:12 EST    2.73   3.48    6  308    9  31.1  39.7  999.6 32.8  1.027 -99.9 -99.99 -9.99
2019/12/04 02:18 EST    2.70   3.36    5  303    8  31.1  39.7  999.6 32.7  1.027 -99.9 -99.99 -9.99
2019/12/04 02:24 EST    2.66   3.42    5  323    8  31.1  39.6  999.4 32.7  1.027 -99.9 -99.99 -9.99
2019/12/04 02:30 EST    2.62   3.45    5  297    9  30.9  39.4  999.5 32.8  1.027 -99.9 -99.99 -9.99
2019/12/04 02:36 EST    2.58   3.33    6  313    7  31.1  39.4  999.5 32.7  1.027 -99.9 -99.99 -9.99
2019/12/04 02:42 EST    2.53   3.26    5  290    9  31.3  39.2  999.6 32.8  1.027 -99.9 -99.99 -9.99
2019/12/04 02:48 EST    2.48   3.22    6  295    8  31.1  39.4  999.6 32.8  1.027 -99.9 -99.99 -9.99
2019/12/04 02:54 EST    2.43   3.09    6  296    9  30.9  39.4  999.6 32.8  1.027 -99.9 -99.99 -9.99
2019/12/04 03:00 EST    2.37   3.10    7  298    9  30.9  39.6  999.5 32.8  1.027 -99.9 -99.99 -9.99
2019/12/04 03:06 EST    2.31 -99.99 -999 -999 -999 -99.9 -99.9 -999.9 -9.9 -9.999 -99.9 -99.99 -9.99
2019/12/04 03:12 EST    2.25 -99.99 -999 -999 -999 -99.9 -99.9 -999.9 -9.9 -9.999 -99.9 -99.99 -9.99
2019/12/04 03:18 EST    2.19 -99.99 -999 -999 -999 -99.9 -99.9 -999.9 -9.9 -9.999 -99.9 -99.99 -9.99
2019/12/04 03:24 EST    2.13   2.86 -999 -999 -999 -99.9 -99.9 -999.9 -9.9 -9.999 -99.9 -99.99 -9.99
2019/12/04 03:30 EST    2.07   2.78    5  296   11  30.9  39.4  999.7 32.8  1.027 -99.9 -99.99 -9.99
2019/12/04 03:36 EST    2.01 -99.99 -999 -999 -999 -99.9 -99.9 -999.9 -9.9 -9.999 -99.9 -99.99 -9.99
2019/12/04 03:42 EST    1.94 -99.99 -999 -999 -999 -99.9 -99.9 -999.9 -9.9 -9.999 -99.9 -99.99 -9.99
2019/12/04 03:48 EST    1.88 -99.99 -999 -999 -999 -99.9 -99.9 -999.9 -9.9 -9.999 -99.9 -99.99 -9.99
2019/12/04 03:54 EST    1.81 -99.99 -999 -999 -999 -99.9 -99.9 -999.9 -9.9 -9.999 -99.9 -99.99 -9.99
2019/12/04 04:00 EST    1.75 -99.99 -999 -999 -999 -99.9 -99.9 -999.9 -9.9 -9.999 -99.9 -99.99 -9.99
2019/12/04 04:06 EST    1.69 -99.99 -999 -999 -999 -99.9 -99.9 -999.9 -9.9 -9.999 -99.9 -99.99 -9.99
2019/12/04 04:12 EST    1.62 -99.99 -999 -999 -999 -99.9 -99.9 -999.9 -9.9 -9.999 -99.9 -99.99 -9.99
2019/12/04 04:18 EST    1.56 -99.99 -999 -999 -999 -99.9 -99.9 -999.9 -9.9 -9.999 -99.9 -99.99 -9.99
2019/12/04 04:24 EST    1.50 -99.99 -999 -999 -999 -99.9 -99.9 -999.9 -9.9 -9.999 -99.9 -99.99 -9.99
2019/12/04 04:30 EST    1.44 -99.99 -999 -999 -999 -99.9 -99.9 -999.9 -9.9 -9.999 -99.9 -99.99 -9.99
2019/12/04 04:36 EST    1.39 -99.99 -999 -999 -999 -99.9 -99.9 -999.9 -9.9 -9.999 -99.9 -99.99 -9.99
2019/12/04 04:42 EST    1.33 -99.99 -999 -999 -999 -99.9 -99.9 -999.9 -9.9 -9.999 -99.9 -99.99 -9.99
2019/12/04 04:48 EST    1.28 -99.99 -999 -999 -999 -99.9 -99.9 -999.9 -9.9 -9.999 -99.9 -99.99 -9.99
2019/12/04 04:54 EST    1.23 -99.99 -999 -999 -999 -99.9 -99.9 -999.9 -9.9 -9.999 -99.9 -99.99 -9.99
2019/12/04 05:00 EST    1.19 -99.99 -999 -999 -999 -99.9 -99.9 -999.9 -9.9 -9.999 -99.9 -99.99 -9.99
2019/12/04 05:06 EST    1.15 -99.99 -999 -999 -999 -99.9 -99.9 -999.9 -9.9 -9.999 -99.9 -99.99 -9.99
2019/12/04 05:12 EST    1.11 -99.99 -999 -999 -999 -99.9 -99.9 -999.9 -9.9 -9.999 -99.9 -99.99 -9.99
2019/12/04 05:18 EST    1.07 -99.99 -999 -999 -999 -99.9 -99.9 -999.9 -9.9 -9.999 -99.9 -99.99 -9.99
2019/12/04 05:24 EST    1.03 -99.99 -999 -999 -999 -99.9 -99.9 -999.9 -9.9 -9.999 -99.9 -99.99 -9.99
2019/12/04 05:30 EST    1.00 -99.99 -999 -999 -999 -99.9 -99.9 -999.9 -9.9 -9.999 -99.9 -99.99 -9.99
2019/12/04 05:36 EST    0.98 -99.99 -999 -999 -999 -99.9 -99.9 -999.9 -9.9 -9.999 -99.9 -99.99 -9.99
2019/12/04 05:42 EST    0.95 -99.99 -999 -999 -999 -99.9 -99.9 -999.9 -9.9 -9.999 -99.9 -99.99 -9.99
2019/12/04 05:48 EST    0.93 -99.99 -999 -999 -999 -99.9 -99.9 -999.9 -9.9 -9.999 -99.9 -99.99 -9.99
2019/12/04 05:54 EST    0.91 -99.99 -999 -999 -999 -99.9 -99.9 -999.9 -9.9 -9.999 -99.9 -99.99 -9.99
2019/12/04 06:00 EST    0.90 -99.99 -999 -999 -999 -99.9 -99.9 -999.9 -9.9 -9.999 -99.9 -99.99 -9.99
2019/12/04 06:06 EST    0.88 -99.99 -999 -999 -999 -99.9 -99.9 -999.9 -9.9 -9.999 -99.9 -99.99 -9.99
2019/12/04 06:12 EST    0.87 -99.99 -999 -999 -999 -99.9 -99.9 -999.9 -9.9 -9.999 -99.9 -99.99 -9.99
2019/12/04 06:18 EST    0.86 -99.99 -999 -999 -999 -99.9 -99.9 -999.9 -9.9 -9.999 -99.9 -99.99 -9.99
2019/12/04 06:24 EST    0.86 -99.99 -999 -999 -999 -99.9 -99.9 -999.9 -9.9 -9.999 -99.9 -99.99 -9.99
2019/12/04 06:30 EST    0.85 -99.99 -999 -999 -999 -99.9 -99.9 -999.9 -9.9 -9.999 -99.9 -99.99 -9.99
2019/12/04 06:36 EST    0.85 -99.99 -999 -999 -999 -99.9 -99.9 -999.9 -9.9 -9.999 -99.9 -99.99 -9.99
2019/12/04 06:42 EST    0.85 -99.99 -999 -999 -999 -99.9 -99.9 -999.9 -9.9 -9.999 -99.9 -99.99 -9.99
2019/12/04 06:48 EST    0.85 -99.99 -999 -999 -999 -99.9 -99.9 -999.9 -9.9 -9.999 -99.9 -99.99 -9.99
2019/12/04 06:54 EST    0.85 -99.99 -999 -999 -999 -99.9 -99.9 -999.9 -9.9 -9.999 -99.9 -99.99 -9.99
2019/12/04 07:00 EST    0.86 -99.99 -999 -999 -999 -99.9 -99.9 -999.9 -9.9 -9.999 -99.9 -99.99 -9.99
2019/12/04 07:06 EST    0.86 -99.99 -999 -999 -999 -99.9 -99.9 -999.9 -9.9 -9.999 -99.9 -99.99 -9.99
2019/12/04 07:12 EST    0.87 -99.99 -999 -999 -999 -99.9 -99.9 -999.9 -9.9 -9.999 -99.9 -99.99 -9.99
2019/12/04 07:18 EST    0.87 -99.99 -999 -999 -999 -99.9 -99.9 -999.9 -9.9 -9.999 -99.9 -99.99 -9.99
2019/12/04 07:24 EST    0.88 -99.99 -999 -999 -999 -99.9 -99.9 -999.9 -9.9 -9.999 -99.9 -99.99 -9.99
2019/12/04 07:30 EST    0.89   1.92 -999 -999 -999 -99.9 -99.9 -999.9 -9.9 -9.999 -99.9 -99.99 -9.99
2019/12/04 07:36 EST    0.90   1.87    4  255    7  32.4  39.9 1000.7 32.9  1.027 -99.9 -99.99 -9.99
2019/12/04 07:42 EST    0.91   1.89    4  219    5  32.5  39.7 1000.7 32.9  1.027 -99.9 -99.99 -9.99
2019/12/04 07:48 EST    0.92   1.91    6  231    6  32.5  39.7 1000.7 32.9  1.027 -99.9 -99.99 -9.99
2019/12/04 07:54 EST    0.93   1.98    5  253    7  32.5  39.7 1000.6 32.9  1.027 -99.9 -99.99 -9.99
2019/12/04 08:00 EST    0.94   1.97    6  239    8  32.5  39.7 1000.7 32.9  1.027 -99.9 -99.99 -9.99
2019/12/04 08:06 EST    0.96   2.01    5  234    8  32.7  39.7 1000.6 33.0  1.027 -99.9 -99.99 -9.99
2019/12/04 08:12 EST    0.97   1.99    5  245    7  32.5  39.9 1000.7 32.9  1.027 -99.9 -99.99 -9.99
2019/12/04 08:18 EST    0.98   1.90    6  252    8  32.5  39.9 1000.7 33.0  1.027 -99.9 -99.99 -9.99
2019/12/04 08:24 EST    1.00   2.02    6  254    9  32.4  39.9 1000.8 32.9  1.027 -99.9 -99.99 -9.99
2019/12/04 08:30 EST    1.01   2.03    7  253    9  32.4  39.9 1000.8 33.0  1.027 -99.9 -99.99 -9.99
2019/12/04 08:36 EST    1.03   2.01    8  252    9  32.5  39.9 1000.9 33.0  1.027 -99.9 -99.99 -9.99
2019/12/04 08:42 EST    1.05   2.07    8  244   10  32.7  40.1 1000.9 32.9  1.027 -99.9 -99.99 -9.99
2019/12/04 08:48 EST    1.07   2.02    7  240   10  32.7  40.1 1000.8 33.0  1.027 -99.9 -99.99 -9.99
2019/12/04 08:54 EST    1.09   2.14    6  243    8  32.7  40.1 1000.8 33.0  1.027 -99.9 -99.99 -9.99
2019/12/04 09:00 EST    1.11   2.14    7  243   11  32.9  40.1 1000.7 33.0  1.027 -99.9 -99.99 -9.99
2019/12/04 09:06 EST    1.14   2.18    8  248   10  32.9  40.1 1000.7 33.0  1.027 -99.9 -99.99 -9.99
2019/12/04 09:12 EST    1.16   2.16    7  250    9  33.3  40.3 1000.8 33.0  1.027 -99.9 -99.99 -9.99
2019/12/04 09:18 EST    1.19   2.15    7  243   10  33.3  40.3 1000.9 33.0  1.027 -99.9 -99.99 -9.99
2019/12/04 09:24 EST    1.22   2.29    7  246   10  33.6  40.3 1000.9 33.0  1.027 -99.9 -99.99 -9.99
2019/12/04 09:30 EST    1.25   2.20    6  243    9  33.8  40.3 1000.9 33.0  1.027 -99.9 -99.99 -9.99
2019/12/04 09:36 EST    1.28   2.26    7  243    8  34.2  40.3 1001.0 33.0  1.027 -99.9 -99.99 -9.99
2019/12/04 09:42 EST    1.31   2.28    7  249    8  34.3  40.3 1001.0 33.0  1.027 -99.9 -99.99 -9.99
2019/12/04 09:48 EST    1.35   2.28    7  241    9  34.7  40.3 1001.0 32.9  1.027 -99.9 -99.99 -9.99
2019/12/04 09:54 EST    1.38   2.40    7  252   10  34.7  40.3 1000.9 33.0  1.027 -99.9 -99.99 -9.99
2019/12/04 10:00 EST    1.42   2.39    5  266    8  34.9  40.5 1000.9 33.0  1.027 -99.9 -99.99 -9.99
2019/12/04 10:06 EST    1.46   2.44    5  248    7  35.2  40.3 1000.9 33.0  1.027 -99.9 -99.99 -9.99
2019/12/04 10:12 EST    1.50   2.50    4  245    6  35.8  40.3 1000.9 33.0  1.027 -99.9 -99.99 -9.99
2019/12/04 10:18 EST    1.54   2.54    8  265    9  36.1  40.3 1000.7 32.9  1.027 -99.9 -99.99 -9.99
2019/12/04 10:24 EST    1.59   2.56    5  263   10  36.3  40.1 1000.7 32.9  1.027 -99.9 -99.99 -9.99
2019/12/04 10:30 EST    1.63   2.44    6  266    9  36.5  40.1 1000.5 32.9  1.027 -99.9 -99.99 -9.99
2019/12/04 10:36 EST    1.68   2.60    5  258   10  36.5  40.1 1000.4 33.0  1.027 -99.9 -99.99 -9.99
2019/12/04 10:42 EST    1.73   2.64    6  259    8  36.7  40.3 1000.3 32.9  1.027 -99.9 -99.99 -9.99
2019/12/04 10:48 EST    1.77   2.73    7  267    9  36.7  40.1 1000.2 32.9  1.027 -99.9 -99.99 -9.99
2019/12/04 10:54 EST    1.82   2.72    7  269   10  36.9  40.1 1000.1 32.9  1.027 -99.9 -99.99 -9.99
2019/12/04 11:00 EST    1.87   2.66    6  269    9  37.0  40.1 1000.1 32.9  1.027 -99.9 -99.99 -9.99
2019/12/04 11:06 EST    1.93   2.81    6  264    9  37.2  40.1  999.9 33.0  1.027 -99.9 -99.99 -9.99
2019/12/04 11:12 EST    1.98   2.83    7  266   10  37.2  40.1  999.9 33.0  1.027 -99.9 -99.99 -9.99
2019/12/04 11:18 EST    2.03   2.82    8  255    8  37.4  40.1  999.8 32.9  1.027 -99.9 -99.99 -9.99
2019/12/04 11:24 EST    2.08   3.04    7  252   10  37.6  39.9  999.8 32.9  1.027 -99.9 -99.99 -9.99
2019/12/04 11:30 EST    2.13   3.03    8  251   10  37.6  39.9  999.7 32.9  1.027 -99.9 -99.99 -9.99
2019/12/04 11:36 EST    2.19   3.15    7  245   10  37.6  39.9  999.6 32.9  1.027 -99.9 -99.99 -9.99
2019/12/04 11:42 EST    2.24   3.21    8  253   10  37.8  39.9  999.6 32.9  1.027 -99.9 -99.99 -9.99
2019/12/04 11:48 EST    2.29   3.11    8  248   10  38.1  39.9  999.5 32.9  1.027 -99.9 -99.99 -9.99
2019/12/04 11:54 EST    2.34   3.20    7  246    9  37.9  39.9  999.4 32.9  1.027 -99.9 -99.99 -9.99
2019/12/04 12:00 EST    2.38   3.37    6  242    9  38.3  40.1  999.3 32.9  1.027 -99.9 -99.99 -9.99
2019/12/04 12:06 EST    2.43   3.40    5  255    8  38.3  40.1  999.3 32.9  1.027 -99.9 -99.99 -9.99
2019/12/04 12:12 EST    2.48   3.38    6  245    7  38.3  40.3  999.2 32.8  1.027 -99.9 -99.99 -9.99
2019/12/04 12:18 EST    2.52   3.48    8  269   10  38.8  40.5  999.2 32.8  1.027 -99.9 -99.99 -9.99
2019/12/04 12:24 EST    2.56   3.55    7  275   10  38.8  40.3  999.1 32.9  1.027 -99.9 -99.99 -9.99
2019/12/04 12:30 EST    2.60   3.49    7  283    9  38.8  40.3  999.0 32.9  1.027 -99.9 -99.99 -9.99
2019/12/04 12:36 EST    2.64   3.64    6  273    8  38.7  40.3  998.9 32.9  1.027 -99.9 -99.99 -9.99
2019/12/04 12:42 EST    2.67   3.64    8  262    9  38.7  40.5  998.7 32.8  1.027 -99.9 -99.99 -9.99
2019/12/04 12:48 EST    2.70   3.65    5  276    9  38.8  40.5  998.7 32.8  1.027 -99.9 -99.99 -9.99
2019/12/04 12:54 EST    2.73   3.74    5  262    7  38.7  40.5  998.6 32.8  1.027 -99.9 -99.99 -9.99
2019/12/04 13:00 EST    2.75   3.75    4  272    7  38.7  40.5  998.6 32.7  1.027 -99.9 -99.99 -9.99
2019/12/04 13:06 EST    2.77   3.81    5  260    8  38.5  40.5  998.5 32.7  1.027 -99.9 -99.99 -9.99
2019/12/04 13:12 EST    2.79   3.83    5  261    8  38.5  40.5  998.5 32.7  1.027 -99.9 -99.99 -9.99
2019/12/04 13:18 EST    2.81   3.71    5  256    7  38.7  40.5  998.5 32.6  1.027 -99.9 -99.99 -9.99
2019/12/04 13:24 EST    2.82   3.80    4  273    6  38.5  40.3  998.4 32.6  1.027 -99.9 -99.99 -9.99
2019/12/04 13:30 EST    2.82   3.84    3  265    4  38.7  40.3  998.4 32.5  1.027 -99.9 -99.99 -9.99
2019/12/04 13:36 EST    2.83   3.80    4  290    6  38.7  40.3  998.4 32.6  1.027 -99.9 -99.99 -9.99
2019/12/04 13:42 EST    2.83   3.86    4  282    5  38.7  40.3  998.4 32.4  1.027 -99.9 -99.99 -9.99
2019/12/04 13:48 EST    2.82   3.84    5  256    7  38.7  40.3  998.3 32.5  1.027 -99.9 -99.99 -9.99
2019/12/04 13:54 EST    2.82   3.75    5  256    7  38.7  40.3  998.2 32.4  1.027 -99.9 -99.99 -9.99
2019/12/04 14:00 EST    2.80   3.75    6  269    7  38.7  40.3  998.1 32.4  1.027 -99.9 -99.99 -9.99
2019/12/04 14:06 EST    2.79   3.80    5  250    6  38.7  40.5  998.1 32.6  1.027 -99.9 -99.99 -9.99
2019/12/04 14:12 EST    2.77   3.75    5  250    7  38.7  40.5  998.0 32.6  1.027 -99.9 -99.99 -9.99
2019/12/04 14:18 EST    2.75   3.82    4  253    6  38.7  40.5  998.1 32.5  1.027 -99.9 -99.99 -9.99
2019/12/04 14:24 EST    2.73   3.74    5  247    6  38.8  40.1  998.1 32.6  1.027 -99.9 -99.99 -9.99
2019/12/04 14:30 EST    2.70   3.73    5  236    6  39.2  40.1  998.1 32.5  1.027 -99.9 -99.99 -9.99
2019/12/04 14:36 EST    2.67   3.80    5  235    6  39.2  40.1  998.0 32.5  1.027 -99.9 -99.99 -9.99
2019/12/04 14:42 EST    2.63   3.68    6  243    7  39.4  39.9  998.0 32.5  1.027 -99.9 -99.99 -9.99
2019/12/04 14:48 EST    2.59   3.64    5  244    9  39.7  39.9  997.9 32.5  1.027 -99.9 -99.99 -9.99
2019/12/04 14:54 EST    2.55   3.53    8  234    9  39.2  39.9  997.9 32.4  1.027 -99.9 -99.99 -9.99
2019/12/04 15:00 EST    2.51   3.53    7  255   10  39.0  39.7  997.9 32.4  1.027 -99.9 -99.99 -9.99
2019/12/04 15:06 EST    2.46   3.47    8  235   10  39.2  39.6  998.0 32.3  1.027 -99.9 -99.99 -9.99
2019/12/04 15:12 EST    2.42   3.46    8  238   10  39.2  39.7  998.0 32.4  1.027 -99.9 -99.99 -9.99
2019/12/04 15:18 EST    2.36   3.45    6  238    9  39.2  39.6  998.0 32.2  1.026 -99.9 -99.99 -9.99
2019/12/04 15:24 EST    2.31   3.29    5  244    7  39.2  39.9  998.0 32.4  1.027 -99.9 -99.99 -9.99
2019/12/04 15:30 EST    2.26   3.23    5  244    7  39.0  39.6  997.9 32.2  1.026 -99.9 -99.99 -9.99
2019/12/04 15:36 EST    2.20   3.23    6  251    7  39.2  39.7  997.9 32.3  1.027 -99.9 -99.99 -9.99
2019/12/04 15:42 EST    2.14   3.08    4  259    6  39.0  39.4  997.8 32.2  1.027 -99.9 -99.99 -9.99
2019/12/04 15:48 EST    2.08   3.04    3  241    4  39.0  39.4  997.8 32.2  1.026 -99.9 -99.99 -9.99
2019/12/04 15:54 EST    2.02   3.00    4  230    4  39.2  39.4  997.9 32.2  1.026 -99.9 -99.99 -9.99
2019/12/04 16:00 EST    1.96   2.92    3  230    4  39.2  39.6  997.9 32.2  1.026 -99.9 -99.99 -9.99
2019/12/04 16:06 EST    1.89   2.96    4  254    6  39.0  39.7  998.0 32.2  1.026 -99.9 -99.99 -9.99
2019/12/04 16:12 EST    1.83   2.78    5  249    6  39.0  39.4  997.9 32.2  1.026 -99.9 -99.99 -9.99
2019/12/04 16:18 EST    1.77   2.74    5  253    6  39.0  39.4  997.9 32.2  1.026 -99.9 -99.99 -9.99
2019/12/04 16:24 EST    1.70   2.67    6  238    7  39.0  39.4  998.0 32.2  1.026 -99.9 -99.99 -9.99
2019/12/04 16:30 EST    1.64   2.53    5  243    7  39.0  39.6  998.0 32.3  1.027 -99.9 -99.99 -9.99
2019/12/04 16:36 EST    1.58   2.55    6  255    7  39.0  39.4  998.0 32.2  1.026 -99.9 -99.99 -9.99
2019/12/04 16:42 EST    1.51   2.52    7  254    9  38.7  39.6  998.0 32.2  1.026 -99.9 -99.99 -9.99
2019/12/04 16:48 EST    1.45   2.44    8  249    9  38.8  39.6  998.1 32.2  1.026 -99.9 -99.99 -9.99
2019/12/04 16:54 EST    1.39   2.40    9  253   10  38.7  39.6  998.2 32.1  1.026 -99.9 -99.99 -9.99
2019/12/04 17:00 EST    1.34   2.34   10  249   12  38.5  39.6  998.3 32.0  1.026 -99.9 -99.99 -9.99
2019/12/04 17:06 EST    1.28   2.20    8  248   12  38.7  39.6  998.4 32.2  1.026 -99.9 -99.99 -9.99
2019/12/04 17:12 EST    1.22   2.23   10  249   11  38.5  39.6  998.4 32.2  1.026 -99.9 -99.99 -9.99
2019/12/04 17:18 EST    1.17   2.22    8  245   11  38.7  39.4  998.5 31.9  1.026 -99.9 -99.99 -9.99
2019/12/04 17:24 EST    1.12   2.12    9  247   10  38.5  39.4  998.5 32.2  1.026 -99.9 -99.99 -9.99
2019/12/04 17:30 EST    1.07   2.03   11  250   12  38.3  39.4  998.5 32.2  1.026 -99.9 -99.99 -9.99
2019/12/04 17:36 EST    1.03   2.05   11  253   14  37.9  39.6  998.5 32.2  1.026 -99.9 -99.99 -9.99
2019/12/04 17:42 EST    0.99   2.06   11  254   14  37.9  39.6  998.6 32.2  1.026 -99.9 -99.99 -9.99
2019/12/04 17:48 EST    0.95   1.96   10  263   13  37.9  39.4  998.6 32.2  1.027 -99.9 -99.99 -9.99
2019/12/04 17:54 EST    0.91   1.95    8  262   11  37.8  39.6  998.6 32.2  1.026 -99.9 -99.99 -9.99
2019/12/04 18:00 EST    0.88   1.81    9  262    9  37.8  39.4  998.7 32.2  1.026 -99.9 -99.99 -9.99
2019/12/04 18:06 EST    0.84   1.85    9  265   11  37.8  39.6  998.7 32.1  1.026 -99.9 -99.99 -9.99
2019/12/04 18:12 EST    0.82   1.87    9  257   11  37.8  39.6  998.7 32.2  1.026 -99.9 -99.99 -9.99
2019/12/04 18:18 EST    0.79   1.80    9  260   11  37.6  39.6  998.7 32.1  1.026 -99.9 -99.99 -9.99
2019/12/04 18:24 EST    0.77   1.81    9  261   11  37.6  39.6  998.7 32.2  1.026 -99.9 -99.99 -9.99
2019/12/04 18:30 EST    0.75   1.71    8  265   11  37.6  39.6  998.8 32.2  1.026 -99.9 -99.99 -9.99
2019/12/04 18:36 EST    0.73   1.73    9  261   11  37.4  39.6  998.8 32.2  1.026 -99.9 -99.99 -9.99
2019/12/04 18:42 EST    0.71   1.70    9  265   12  37.2  39.6  998.8 32.2  1.026 -99.9 -99.99 -9.99
2019/12/04 18:48 EST    0.70   1.69    9  260   12  37.2  39.6  998.7 32.2  1.026 -99.9 -99.99 -9.99
2019/12/04 18:54 EST    0.69   1.74   10  263   11  37.0  39.6  998.8 32.2  1.026 -99.9 -99.99 -9.99
2019/12/04 19:00 EST    0.68   1.67   10  267   12  37.2  39.4  998.8 32.2  1.026 -99.9 -99.99 -9.99
2019/12/04 19:06 EST    0.67   1.58    9  264   12  37.0  39.4  998.8 32.2  1.027 -99.9 -99.99 -9.99
2019/12/04 19:12 EST    0.66   1.63    8  266   11  37.0  39.4  998.8 32.2  1.026 -99.9 -99.99 -9.99
2019/12/04 19:18 EST    0.66   1.70    9  272   11  37.0  39.4  998.7 32.2  1.026 -99.9 -99.99 -9.99
2019/12/04 19:24 EST    0.66   1.61    7  281   11  36.9  39.4  998.7 32.2  1.026 -99.9 -99.99 -9.99
2019/12/04 19:30 EST    0.66   1.66    8  276   11  36.7  39.4  998.8 32.2  1.026 -99.9 -99.99 -9.99
2019/12/04 19:36 EST    0.66   1.62    7  282   11  36.7  39.4  998.8 32.2  1.026 -99.9 -99.99 -9.99
2019/12/04 19:42 EST    0.66   1.54    9  283   11  36.9  39.4  998.7 32.2  1.026 -99.9 -99.99 -9.99
2019/12/04 19:48 EST    0.66   1.69    8  286   12  37.0  39.4  998.7 32.2  1.026 -99.9 -99.99 -9.99
2019/12/04 19:54 EST    0.66   1.65    9  278   11  37.0  39.4  998.7 32.2  1.026 -99.9 -99.99 -9.99
2019/12/04 20:00 EST    0.67   1.59    7  277   10  36.9  39.6  998.7 32.1  1.026 -99.9 -99.99 -9.99
2019/12/04 20:06 EST    0.68   1.62    8  278   11  36.7  39.6  998.7 32.1  1.026 -99.9 -99.99 -9.99
2019/12/04 20:12 EST    0.68   1.60    8  278   12  36.9  39.4  998.7 32.2  1.026 -99.9 -99.99 -9.99
2019/12/04 20:18 EST    0.69   1.65   10  275   12  36.9  39.6  998.6 32.1  1.026 -99.9 -99.99 -9.99
2019/12/04 20:24 EST    0.70   1.66    8  266   12  37.0  39.6  998.5 32.1  1.026 -99.9 -99.99 -9.99
2019/12/04 20:30 EST    0.71   1.61   10  275   11  36.9  39.4  998.5 32.2  1.026 -99.9 -99.99 -9.99
2019/12/04 20:36 EST    0.73   1.63    7  269   11  37.0  39.4  998.5 32.2  1.026 -99.9 -99.99 -9.99
2019/12/04 20:42 EST    0.74   1.65   10  266   12  36.9  39.6  998.4 32.1  1.026 -99.9 -99.99 -9.99
2019/12/04 20:48 EST    0.76   1.62    8  272   11  36.9  39.6  998.4 32.1  1.026 -99.9 -99.99 -9.99
2019/12/04 20:54 EST    0.77   1.73   10  275   11  36.9  39.6  998.4 32.1  1.026 -99.9 -99.99 -9.99
2019/12/04 21:00 EST    0.79   1.74    8  267   10  36.9  39.6  998.5 32.1  1.026 -99.9 -99.99 -9.99
2019/12/04 21:06 EST    0.81   1.73    7  274   10  36.9  39.4  998.5 32.2  1.026 -99.9 -99.99 -9.99
2019/12/04 21:12 EST    0.83   1.78    8  274   11  36.7  39.6  998.5 32.1  1.026 -99.9 -99.99 -9.99
2019/12/04 21:18 EST    0.86   1.79    8  275    9  36.5  39.6  998.5 32.1  1.026 -99.9 -99.99 -9.99
2019/12/04 21:24 EST    0.88   1.83    7  270    9  36.5  39.6  998.4 32.1  1.026 -99.9 -99.99 -9.99
2019/12/04 21:30 EST    0.91   1.83    7  271   11  36.7  39.6  998.6 32.1  1.026 -99.9 -99.99 -9.99
2019/12/04 21:36 EST    0.94   1.79    7  270   10  36.5  39.6  998.6 32.1  1.026 -99.9 -99.99 -9.99
2019/12/04 21:42 EST    0.97   1.82    8  276   12  36.3  39.6  998.6 32.1  1.026 -99.9 -99.99 -9.99
2019/12/04 21:48 EST    1.00   1.94    9  275   13  36.3  39.6  998.7 32.1  1.026 -99.9 -99.99 -9.99
2019/12/04 21:54 EST    1.04   1.97    9  279   14  36.3  39.6  998.7 32.1  1.026 -99.9 -99.99 -9.99
2019/12/04 22:00 EST    1.07   1.99   10  270   12  36.7  39.4  998.7 32.2  1.026 -99.9 -99.99 -9.99
2019/12/04 22:06 EST    1.11   2.03   11  272   13  36.7  39.6  998.7 32.1  1.026 -99.9 -99.99 -9.99
2019/12/04 22:12 EST    1.15   2.02   10  278   14  36.5  39.6  998.7 32.1  1.026 -99.9 -99.99 -9.99
2019/12/04 22:18 EST    1.19   2.01   11  272   13  36.7  39.6  998.7 32.1  1.026 -99.9 -99.99 -9.99
2019/12/04 22:24 EST    1.24   2.11    8  271   13  36.5  39.6  998.6 31.9  1.026 -99.9 -99.99 -9.99
2019/12/04 22:30 EST    1.28   2.16    9  279   12  36.3  39.6  998.6 32.0  1.026 -99.9 -99.99 -9.99
2019/12/04 22:36 EST    1.33   2.27    6  280   10  36.1  39.4  998.7 32.0  1.026 -99.9 -99.99 -9.99
2019/12/04 22:42 EST    1.38   2.27    7  282    9  36.1  39.6  998.6 32.0  1.026 -99.9 -99.99 -9.99
2019/12/04 22:48 EST    1.43   2.31    5  287   10  36.1  39.6  998.6 32.0  1.026 -99.9 -99.99 -9.99
2019/12/04 22:54 EST    1.48   2.34    7  286   10  36.0  39.6  998.6 32.0  1.026 -99.9 -99.99 -9.99
2019/12/04 23:00 EST    1.54   2.41    6  296    8  36.0  39.6  998.6 32.0  1.026 -99.9 -99.99 -9.99
2019/12/04 23:06 EST    1.59   2.45    5  306    9  36.0  39.6  998.6 31.9  1.026 -99.9 -99.99 -9.99
2019/12/04 23:12 EST    1.65   2.45    5  301    9  35.8  39.6  998.6 32.0  1.026 -99.9 -99.99 -9.99
2019/12/04 23:18 EST    1.71 -99.99 -999 -999 -999 -99.9 -99.9 -999.9 -9.9 -9.999 -99.9 -99.99 -9.99
2019/12/04 23:24 EST    1.76 -99.99 -999 -999 -999 -99.9 -99.9 -999.9 -9.9 -9.999 -99.9 -99.99 -9.99
2019/12/04 23:30 EST    1.82 -99.99 -999 -999 -999 -99.9 -99.9 -999.9 -9.9 -9.999 -99.9 -99.99 -9.99
2019/12/04 23:36 EST    1.88 -99.99 -999 -999 -999 -99.9 -99.9 -999.9 -9.9 -9.999 -99.9 -99.99 -9.99
2019/12/04 23:42 EST    1.94 -99.99 -999 -999 -999 -99.9 -99.9 -999.9 -9.9 -9.999 -99.9 -99.99 -9.99
2019/12/04 23:48 EST    2.00 -99.99 -999 -999 -999 -99.9 -99.9 -999.9 -9.9 -9.999 -99.9 -99.99 -9.99
2019/12/04 23:54 EST    2.06 -99.99 -999 -999 -999 -99.9 -99.9 -999.9 -9.9 -9.999 -99.9 -99.99 -9.99
2019/12/05 00:00 EST    2.12 -99.99 -999 -999 -999 -99.9 -99.9 -999.9 -9.9 -9.999 -99.9 -99.99 -9.99
2019/12/05 00:06 EST    2.17 -99.99 -999 -999 -999 -99.9 -99.9 -999.9 -9.9 -9.999 -99.9 -99.99 -9.99
2019/12/05 00:12 EST    2.23 -99.99 -999 -999 -999 -99.9 -99.9 -999.9 -9.9 -9.999 -99.9 -99.99 -9.99
2019/12/05 00:18 EST    2.28 -99.99 -999 -999 -999 -99.9 -99.9 -999.9 -9.9 -9.999 -99.9 -99.99 -9.99
2019/12/05 00:24 EST    2.34 -99.99 -999 -999 -999 -99.9 -99.9 -999.9 -9.9 -9.999 -99.9 -99.99 -9.99
2019/12/05 00:30 EST    2.39 -99.99 -999 -999 -999 -99.9 -99.9 -999.9 -9.9 -9.999 -99.9 -99.99 -9.99
2019/12/05 00:36 EST    2.44 -99.99 -999 -999 -999 -99.9 -99.9 -999.9 -9.9 -9.999 -99.9 -99.99 -9.99
2019/12/05 00:42 EST    2.49 -99.99 -999 -999 -999 -99.9 -99.9 -999.9 -9.9 -9.999 -99.9 -99.99 -9.99
2019/12/05 00:48 EST    2.54 -99.99 -999 -999 -999 -99.9 -99.9 -999.9 -9.9 -9.999 -99.9 -99.99 -9.99
2019/12/05 00:54 EST    2.58 -99.99 -999 -999 -999 -99.9 -99.9 -999.9 -9.9 -9.999 -99.9 -99.99 -9.99
2019/12/05 01:00 EST    2.62 -99.99 -999 -999 -999 -99.9 -99.9 -999.9 -9.9 -9.999 -99.9 -99.99 -9.99
2019/12/05 01:06 EST    2.66 -99.99 -999 -999 -999 -99.9 -99.9 -999.9 -9.9 -9.999 -99.9 -99.99 -9.99
2019/12/05 01:12 EST    2.69 -99.99 -999 -999 -999 -99.9 -99.9 -999.9 -9.9 -9.999 -99.9 -99.99 -9.99
2019/12/05 01:18 EST    2.73 -99.99 -999 -999 -999 -99.9 -99.9 -999.9 -9.9 -9.999 -99.9 -99.99 -9.99
2019/12/05 01:24 EST    2.76 -99.99 -999 -999 -999 -99.9 -99.9 -999.9 -9.9 -9.999 -99.9 -99.99 -9.99
2019/12/05 01:30 EST    2.78 -99.99 -999 -999 -999 -99.9 -99.9 -999.9 -9.9 -9.999 -99.9 -99.99 -9.99
2019/12/05 01:36 EST    2.80 -99.99 -999 -999 -999 -99.9 -99.9 -999.9 -9.9 -9.999 -99.9 -99.99 -9.99
2019/12/05 01:42 EST    2.82 -99.99 -999 -999 -999 -99.9 -99.9 -999.9 -9.9 -9.999 -99.9 -99.99 -9.99
2019/12/05 01:48 EST    2.84 -99.99 -999 -999 -999 -99.9 -99.9 -999.9 -9.9 -9.999 -99.9 -99.99 -9.99
2019/12/05 01:54 EST    2.85 -99.99 -999 -999 -999 -99.9 -99.9 -999.9 -9.9 -9.999 -99.9 -99.99 -9.99
2019/12/05 02:00 EST    2.86 -99.99 -999 -999 -999 -99.9 -99.9 -999.9 -9.9 -9.999 -99.9 -99.99 -9.99
2019/12/05 02:06 EST    2.86 -99.99 -999 -999 -999 -99.9 -99.9 -999.9 -9.9 -9.999 -99.9 -99.99 -9.99
2019/12/05 02:12 EST    2.87 -99.99 -999 -999 -999 -99.9 -99.9 -999.9 -9.9 -9.999 -99.9 -99.99 -9.99
2019/12/05 02:18 EST    2.86 -99.99 -999 -999 -999 -99.9 -99.9 -999.9 -9.9 -9.999 -99.9 -99.99 -9.99
2019/12/05 02:24 EST    2.86 -99.99 -999 -999 -999 -99.9 -99.9 -999.9 -9.9 -9.999 -99.9 -99.99 -9.99
2019/12/05 02:30 EST    2.85 -99.99 -999 -999 -999 -99.9 -99.9 -999.9 -9.9 -9.999 -99.9 -99.99 -9.99
2019/12/05 02:36 EST    2.84 -99.99 -999 -999 -999 -99.9 -99.9 -999.9 -9.9 -9.999 -99.9 -99.99 -9.99
2019/12/05 02:42 EST    2.82 -99.99 -999 -999 -999 -99.9 -99.9 -999.9 -9.9 -9.999 -99.9 -99.99 -9.99
2019/12/05 02:48 EST    2.80 -99.99 -999 -999 -999 -99.9 -99.9 -999.9 -9.9 -9.999 -99.9 -99.99 -9.99
2019/12/05 02:54 EST    2.78 -99.99 -999 -999 -999 -99.9 -99.9 -999.9 -9.9 -9.999 -99.9 -99.99 -9.99
2019/12/05 03:00 EST    2.76 -99.99 -999 -999 -999 -99.9 -99.9 -999.9 -9.9 -9.999 -99.9 -99.99 -9.99
2019/12/05 03:06 EST    2.73 -99.99 -999 -999 -999 -99.9 -99.9 -999.9 -9.9 -9.999 -99.9 -99.99 -9.99
2019/12/05 03:12 EST    2.70 -99.99 -999 -999 -999 -99.9 -99.9 -999.9 -9.9 -9.999 -99.9 -99.99 -9.99
2019/12/05 03:18 EST    2.66 -99.99 -999 -999 -999 -99.9 -99.9 -999.9 -9.9 -9.999 -99.9 -99.99 -9.99
2019/12/05 03:24 EST    2.63 -99.99 -999 -999 -999 -99.9 -99.9 -999.9 -9.9 -9.999 -99.9 -99.99 -9.99
2019/12/05 03:30 EST    2.59 -99.99 -999 -999 -999 -99.9 -99.9 -999.9 -9.9 -9.999 -99.9 -99.99 -9.99
2019/12/05 03:36 EST    2.54 -99.99 -999 -999 -999 -99.9 -99.9 -999.9 -9.9 -9.999 -99.9 -99.99 -9.99
2019/12/05 03:42 EST    2.50 -99.99 -999 -999 -999 -99.9 -99.9 -999.9 -9.9 -9.999 -99.9 -99.99 -9.99
2019/12/05 03:48 EST    2.45 -99.99 -999 -999 -999 -99.9 -99.9 -999.9 -9.9 -9.999 -99.9 -99.99 -9.99
2019/12/05 03:54 EST    2.41 -99.99 -999 -999 -999 -99.9 -99.9 -999.9 -9.9 -9.999 -99.9 -99.99 -9.99
2019/12/05 04:00 EST    2.36 -99.99 -999 -999 -999 -99.9 -99.9 -999.9 -9.9 -9.999 -99.9 -99.99 -9.99
2019/12/05 04:06 EST    2.30 -99.99 -999 -999 -999 -99.9 -99.9 -999.9 -9.9 -9.999 -99.9 -99.99 -9.99
2019/12/05 04:12 EST    2.25 -99.99 -999 -999 -999 -99.9 -99.9 -999.9 -9.9 -9.999 -99.9 -99.99 -9.99
2019/12/05 04:18 EST    2.19 -99.99 -999 -999 -999 -99.9 -99.9 -999.9 -9.9 -9.999 -99.9 -99.99 -9.99
2019/12/05 04:24 EST    2.14 -99.99 -999 -999 -999 -99.9 -99.9 -999.9 -9.9 -9.999 -99.9 -99.99 -9.99
2019/12/05 04:30 EST    2.08 -99.99 -999 -999 -999 -99.9 -99.9 -999.9 -9.9 -9.999 -99.9 -99.99 -9.99
2019/12/05 04:36 EST    2.02 -99.99 -999 -999 -999 -99.9 -99.9 -999.9 -9.9 -9.999 -99.9 -99.99 -9.99
2019/12/05 04:42 EST    1.96 -99.99 -999 -999 -999 -99.9 -99.9 -999.9 -9.9 -9.999 -99.9 -99.99 -9.99
2019/12/05 04:48 EST    1.90 -99.99 -999 -999 -999 -99.9 -99.9 -999.9 -9.9 -9.999 -99.9 -99.99 -9.99
2019/12/05 04:54 EST    1.84 -99.99 -999 -999 -999 -99.9 -99.9 -999.9 -9.9 -9.999 -99.9 -99.99 -9.99
2019/12/05 05:00 EST    1.78 -99.99 -999 -999 -999 -99.9 -99.9 -999.9 -9.9 -9.999 -99.9 -99.99 -9.99
2019/12/05 05:06 EST    1.72 -99.99 -999 -999 -999 -99.9 -99.9 -999.9 -9.9 -9.999 -99.9 -99.99 -9.99
2019/12/05 05:12 EST    1.66 -99.99 -999 -999 -999 -99.9 -99.9 -999.9 -9.9 -9.999 -99.9 -99.99 -9.99
2019/12/05 05:18 EST    1.61 -99.99 -999 -999 -999 -99.9 -99.9 -999.9 -9.9 -9.999 -99.9 -99.99 -9.99
2019/12/05 05:24 EST    1.55 -99.99 -999 -999 -999 -99.9 -99.9 -999.9 -9.9 -9.999 -99.9 -99.99 -9.99
2019/12/05 05:30 EST    1.49 -99.99 -999 -999 -999 -99.9 -99.9 -999.9 -9.9 -9.999 -99.9 -99.99 -9.99
2019/12/05 05:36 EST    1.44 -99.99 -999 -999 -999 -99.9 -99.9 -999.9 -9.9 -9.999 -99.9 -99.99 -9.99
2019/12/05 05:42 EST    1.39 -99.99 -999 -999 -999 -99.9 -99.9 -999.9 -9.9 -9.999 -99.9 -99.99 -9.99
2019/12/05 05:48 EST    1.34 -99.99 -999 -999 -999 -99.9 -99.9 -999.9 -9.9 -9.999 -99.9 -99.99 -9.99
2019/12/05 05:54 EST    1.29 -99.99 -999 -999 -999 -99.9 -99.9 -999.9 -9.9 -9.999 -99.9 -99.99 -9.99
2019/12/05 06:00 EST    1.24 -99.99 -999 -999 -999 -99.9 -99.9 -999.9 -9.9 -9.999 -99.9 -99.99 -9.99
2019/12/05 06:06 EST    1.20 -99.99 -999 -999 -999 -99.9 -99.9 -999.9 -9.9 -9.999 -99.9 -99.99 -9.99
2019/12/05 06:12 EST    1.16 -99.99 -999 -999 -999 -99.9 -99.9 -999.9 -9.9 -9.999 -99.9 -99.99 -9.99
2019/12/05 06:18 EST    1.12 -99.99 -999 -999 -999 -99.9 -99.9 -999.9 -9.9 -9.999 -99.9 -99.99 -9.99
2019/12/05 06:24 EST    1.09 -99.99 -999 -999 -999 -99.9 -99.9 -999.9 -9.9 -9.999 -99.9 -99.99 -9.99
2019/12/05 06:30 EST    1.05 -99.99 -999 -999 -999 -99.9 -99.9 -999.9 -9.9 -9.999 -99.9 -99.99 -9.99
2019/12/05 06:36 EST    1.02 -99.99 -999 -999 -999 -99.9 -99.9 -999.9 -9.9 -9.999 -99.9 -99.99 -9.99
2019/12/05 06:42 EST    0.99 -99.99 -999 -999 -999 -99.9 -99.9 -999.9 -9.9 -9.999 -99.9 -99.99 -9.99
2019/12/05 06:48 EST    0.97 -99.99 -999 -999 -999 -99.9 -99.9 -999.9 -9.9 -9.999 -99.9 -99.99 -9.99
2019/12/05 06:54 EST    0.94 -99.99 -999 -999 -999 -99.9 -99.9 -999.9 -9.9 -9.999 -99.9 -99.99 -9.99
2019/12/05 07:00 EST    0.92 -99.99 -999 -999 -999 -99.9 -99.9 -999.9 -9.9 -9.999 -99.9 -99.99 -9.99
2019/12/05 07:06 EST    0.90 -99.99 -999 -999 -999 -99.9 -99.9 -999.9 -9.9 -9.999 -99.9 -99.99 -9.99
2019/12/05 07:12 EST    0.89 -99.99 -999 -999 -999 -99.9 -99.9 -999.9 -9.9 -9.999 -99.9 -99.99 -9.99
2019/12/05 07:18 EST    0.87 -99.99 -999 -999 -999 -99.9 -99.9 -999.9 -9.9 -9.999 -99.9 -99.99 -9.99
2019/12/05 07:24 EST    0.86 -99.99 -999 -999 -999 -99.9 -99.9 -999.9 -9.9 -9.999 -99.9 -99.99 -9.99
2019/12/05 07:30 EST    0.85 -99.99 -999 -999 -999 -99.9 -99.9 -999.9 -9.9 -9.999 -99.9 -99.99 -9.99
2019/12/05 07:36 EST    0.84   1.62 -999 -999 -999 -99.9 -99.9 -999.9 -9.9 -9.999 -99.9 -99.99 -9.99
2019/12/05 07:42 EST    0.83   1.67    6  283    9  36.3  40.5 1002.0 32.3  1.027 -99.9 -99.99 -9.99
2019/12/05 07:48 EST    0.83   1.63    7  281    9  36.3  40.5 1002.1 32.4  1.027 -99.9 -99.99 -9.99
2019/12/05 07:54 EST    0.82   1.65    7  279   10  36.5  40.6 1002.1 32.4  1.027 -99.9 -99.99 -9.99
2019/12/05 08:00 EST    0.82   1.68    9  276   11  36.7  40.6 1002.1 32.4  1.027 -99.9 -99.99 -9.99
2019/12/05 08:06 EST    0.82   1.68    8  283   11  36.9  40.6 1002.2 32.4  1.027 -99.9 -99.99 -9.99
2019/12/05 08:12 EST    0.82   1.67    8  286   10  37.0  40.6 1002.3 32.5  1.027 -99.9 -99.99 -9.99
2019/12/05 08:18 EST    0.82   1.70    8  289   11  37.0  40.6 1002.4 32.4  1.027 -99.9 -99.99 -9.99
2019/12/05 08:24 EST    0.82   1.72    8  290   11  37.2  40.6 1002.4 32.4  1.027 -99.9 -99.99 -9.99
2019/12/05 08:30 EST    0.83   1.69    8  291   11  37.4  40.6 1002.5 32.4  1.027 -99.9 -99.99 -9.99
2019/12/05 08:36 EST    0.83   1.70    8  283   10  37.4  40.5 1002.5 32.4  1.027 -99.9 -99.99 -9.99
2019/12/05 08:42 EST    0.84   1.67    6  295   10  37.6  40.5 1002.6 32.4  1.027 -99.9 -99.99 -9.99
2019/12/05 08:48 EST    0.84   1.65    7  290    8  37.9  40.5 1002.7 32.3  1.027 -99.9 -99.99 -9.99
2019/12/05 08:54 EST    0.85   1.71    9  287   11  38.1  40.5 1002.7 32.4  1.027 -99.9 -99.99 -9.99
2019/12/05 09:00 EST    0.86   1.70    9  290   13  38.3  40.3 1002.8 32.3  1.027 -99.9 -99.99 -9.99
2019/12/05 09:06 EST    0.87   1.72   11  281   14  38.5  40.3 1002.8 32.2  1.026 -99.9 -99.99 -9.99
2019/12/05 09:12 EST    0.89   1.72   10  284   13  38.5  40.3 1002.9 32.3  1.027 -99.9 -99.99 -9.99
2019/12/05 09:18 EST    0.90   1.73   11  289   15  38.7  40.5 1003.0 32.3  1.027 -99.9 -99.99 -9.99
2019/12/05 09:24 EST    0.92   1.74   10  294   16  38.8  40.5 1003.1 32.4  1.027 -99.9 -99.99 -9.99
2019/12/05 09:30 EST    0.93   1.74   10  298   13  39.2  40.6 1003.2 32.3  1.027 -99.9 -99.99 -9.99
2019/12/05 09:36 EST    0.95   1.74   10  300   15  39.6  40.6 1003.2 32.4  1.027 -99.9 -99.99 -9.99
2019/12/05 09:42 EST    0.97   1.72   13  300   18  39.7  40.6 1003.3 32.3  1.026 -99.9 -99.99 -9.99
2019/12/05 09:48 EST    1.00   1.76   10  308   17  39.9  40.5 1003.4 32.3  1.026 -99.9 -99.99 -9.99
2019/12/05 09:54 EST    1.02   1.77   10  308   16  40.1  40.1 1003.4 32.1  1.026 -99.9 -99.99 -9.99
2019/12/05 10:00 EST    1.05   1.79   11  306   15  40.1  40.1 1003.5 32.1  1.026 -99.9 -99.99 -9.99
2019/12/05 10:06 EST    1.07   1.84   11  309   15  40.5  40.3 1003.5 32.1  1.026 -99.9 -99.99 -9.99
2019/12/05 10:12 EST    1.10   1.80   11  307   18  40.8  40.3 1003.5 32.2  1.026 -99.9 -99.99 -9.99
2019/12/05 10:18 EST    1.13   1.85   12  300   19  41.0  40.3 1003.4 32.2  1.026 -99.9 -99.99 -9.99
2019/12/05 10:24 EST    1.17   1.89   16  306   24  41.0  40.3 1003.4 32.1  1.026 -99.9 -99.99 -9.99
2019/12/05 10:30 EST    1.20   1.92   16  311   20  41.0  40.3 1003.4 32.1  1.026 -99.9 -99.99 -9.99
2019/12/05 10:36 EST    1.24   1.96   13  305   17  41.4  40.1 1003.5 32.2  1.026 -99.9 -99.99 -9.99
2019/12/05 10:42 EST    1.28   1.99   13  301   21  41.4  40.1 1003.5 32.2  1.026 -99.9 -99.99 -9.99
2019/12/05 10:48 EST    1.32   2.01   11  305   20  41.4  40.1 1003.4 32.2  1.026 -99.9 -99.99 -9.99
2019/12/05 10:54 EST    1.36   2.04   11  304   21  41.4  40.1 1003.5 32.3  1.026 -99.9 -99.99 -9.99
2019/12/05 11:00 EST    1.41   2.08   14  302   22  41.4  40.1 1003.4 32.2  1.026 -99.9 -99.99 -9.99
2019/12/05 11:06 EST    1.45   2.04   14  303   20  41.5  40.1 1003.4 32.2  1.026 -99.9 -99.99 -9.99
2019/12/05 11:12 EST    1.50   2.10   12  295   19  41.7  40.1 1003.5 32.2  1.026 -99.9 -99.99 -9.99
2019/12/05 11:18 EST    1.54   2.14   16  294   22  41.5  40.1 1003.4 32.2  1.026 -99.9 -99.99 -9.99
2019/12/05 11:24 EST    1.59   2.21   15  313   22  41.7  40.1 1003.5 32.2  1.026 -99.9 -99.99 -9.99
2019/12/05 11:30 EST    1.64   2.30   12  306   20  41.9  40.1 1003.5 32.2  1.026 -99.9 -99.99 -9.99
2019/12/05 11:36 EST    1.69   2.31   18  285   21  42.1  40.1 1003.5 32.2  1.026 -99.9 -99.99 -9.99
2019/12/05 11:42 EST    1.75   2.34   14  294   22  42.1  40.1 1003.6 32.2  1.026 -99.9 -99.99 -9.99
2019/12/05 11:48 EST    1.80   2.34   11  299   19  42.1  40.1 1003.6 32.2  1.026 -99.9 -99.99 -9.99
2019/12/05 11:54 EST    1.85   2.40   18  290   23  41.7  40.1 1003.5 32.2  1.026 -99.9 -99.99 -9.99
2019/12/05 12:00 EST    1.90   2.43   12  298   24  41.9  40.1 1003.6 32.1  1.026 -99.9 -99.99 -9.99
2019/12/05 12:06 EST    1.95   2.44   12  300   21  42.4  39.9 1003.5 32.2  1.026 -99.9 -99.99 -9.99
2019/12/05 12:12 EST    2.01   2.52   13  293   17  42.6  39.9 1003.6 32.2  1.026 -99.9 -99.99 -9.99
2019/12/05 12:18 EST    2.06   2.61   13  297   22  42.4  40.1 1003.6 32.1  1.026 -99.9 -99.99 -9.99
2019/12/05 12:24 EST    2.11   2.64   17  298   27  42.3  39.9 1003.7 32.2  1.026 -99.9 -99.99 -9.99
2019/12/05 12:30 EST    2.16   2.71   14  292   25  42.3  40.1 1003.7 32.2  1.026 -99.9 -99.99 -9.99
2019/12/05 12:36 EST    2.21   2.76   16  293   22  42.4  40.5 1003.8 32.3  1.026 -99.9 -99.99 -9.99
2019/12/05 12:42 EST    2.26   2.79   12  295   22  42.4  40.1 1003.8 32.2  1.026 -99.9 -99.99 -9.99
2019/12/05 12:48 EST    2.30   2.79   16  293   23  42.6  40.1 1003.7 32.2  1.026 -99.9 -99.99 -9.99
2019/12/05 12:54 EST    2.35   2.89   14  293   19  42.6  40.1 1003.8 32.1  1.026 -99.9 -99.99 -9.99
2019/12/05 13:00 EST    2.39   3.00   14  283   18  42.8  39.9 1003.8 32.2  1.026 -99.9 -99.99 -9.99
2019/12/05 13:06 EST    2.43   2.98   19  277   23  42.3  39.9 1003.8 32.2  1.026 -99.9 -99.99 -9.99
2019/12/05 13:12 EST    2.47   3.01   22  282   27  42.3  39.9 1003.8 32.1  1.026 -99.9 -99.99 -9.99
2019/12/05 13:18 EST    2.51   3.04   18  282   27  42.4  39.9 1004.0 32.1  1.026 -99.9 -99.99 -9.99
2019/12/05 13:24 EST    2.54   3.04   21  283   26  42.3  39.7 1003.9 32.1  1.026 -99.9 -99.99 -9.99
2019/12/05 13:30 EST    2.57   3.15   20  278   26  42.3  39.9 1004.0 32.0  1.026 -99.9 -99.99 -9.99
2019/12/05 13:36 EST    2.60   3.19   20  289   28  42.3  40.1 1004.2 32.1  1.026 -99.9 -99.99 -9.99
2019/12/05 13:42 EST    2.63   3.16   18  292   27  42.1  39.9 1004.2 32.0  1.026 -99.9 -99.99 -9.99
2019/12/05 13:48 EST    2.65   3.15   16  298   24  42.1  39.9 1004.3 32.1  1.026 -99.9 -99.99 -9.99
2019/12/05 13:54 EST    2.67   3.22   18  286   25  42.1  39.7 1004.2 32.1  1.026 -99.9 -99.99 -9.99
2019/12/05 14:00 EST    2.68   3.24   13  296   22  42.1  39.9 1004.3 32.0  1.026 -99.9 -99.99 -9.99
2019/12/05 14:06 EST    2.70   3.22   19  289   24  42.1  39.7 1004.2 32.1  1.026 -99.9 -99.99 -9.99
2019/12/05 14:12 EST    2.71   3.26   15  294   22  42.3  39.7 1004.5 32.0  1.026 -99.9 -99.99 -9.99
2019/12/05 14:18 EST    2.71   3.23   11  302   18  42.4  39.7 1004.8 32.1  1.026 -99.9 -99.99 -9.99
2019/12/05 14:24 EST    2.72   3.26   12  305   19  42.4  39.7 1004.8 32.0  1.026 -99.9 -99.99 -9.99
2019/12/05 14:30 EST    2.72   3.30   12  308   19  42.4  39.7 1004.9 32.0  1.026 -99.9 -99.99 -9.99
2019/12/05 14:36 EST    2.72   3.28   12  309   15  42.4  39.9 1005.0 32.0  1.026 -99.9 -99.99 -9.99
2019/12/05 14:42 EST    2.71   3.24   13  311   17  42.4  39.7 1005.0 32.0  1.026 -99.9 -99.99 -9.99
2019/12/05 14:48 EST    2.70   3.28   13  316   18  42.4  39.7 1005.2 32.0  1.026 -99.9 -99.99 -9.99
2019/12/05 14:54 EST    2.69   3.23   14  314   19  42.3  39.7 1005.3 32.0  1.026 -99.9 -99.99 -9.99
2019/12/05 15:00 EST    2.67   3.21   10  308   20  42.4  39.7 1005.6 32.0  1.026 -99.9 -99.99 -9.99
2019/12/05 15:06 EST    2.66   3.20   12  285   17  42.3  39.7 1005.9 32.0  1.026 -99.9 -99.99 -9.99
2019/12/05 15:12 EST    2.64   3.16   16  299   22  42.1  39.7 1006.2 32.0  1.026 -99.9 -99.99 -9.99
2019/12/05 15:18 EST    2.61   3.12   13  315   19  41.9  39.7 1006.3 32.0  1.026 -99.9 -99.99 -9.99
2019/12/05 15:24 EST    2.58   3.08   15  314   20  41.7  39.7 1006.2 32.0  1.026 -99.9 -99.99 -9.99
2019/12/05 15:30 EST    2.56   3.09   13  320   18  41.7  39.7 1006.4 32.0  1.026 -99.9 -99.99 -9.99
2019/12/05 15:36 EST    2.52   3.13   13  312   17  41.5  39.7 1006.6 31.9  1.026 -99.9 -99.99 -9.99
2019/12/05 15:42 EST    2.49   3.05   13  312   19  41.4  39.6 1006.7 31.9  1.026 -99.9 -99.99 -9.99
2019/12/05 15:48 EST    2.45   3.03   14  311   19  41.4  39.6 1006.8 31.8  1.026 -99.9 -99.99 -9.99
2019/12/05 15:54 EST    2.41   2.99   14  310   20  41.2  39.6 1006.9 31.8  1.026 -99.9 -99.99 -9.99
2019/12/05 16:00 EST    2.37   2.93   14  302   18  40.8  39.6 1007.0 31.9  1.026 -99.9 -99.99 -9.99
2019/12/05 16:06 EST    2.32   2.93   15  294   19  40.6  39.6 1007.2 31.9  1.026 -99.9 -99.99 -9.99
2019/12/05 16:12 EST    2.28   2.88   16  292   24  40.5  39.6 1007.3 31.9  1.026 -99.9 -99.99 -9.99
2019/12/05 16:18 EST    2.23   2.82   13  309   20  40.5  39.4 1007.5 31.8  1.026 -99.9 -99.99 -9.99
2019/12/05 16:24 EST    2.18   2.81   13  299   19  40.3  39.6 1007.6 31.7  1.026 -99.9 -99.99 -9.99
2019/12/05 16:30 EST    2.12   2.74   12  306   17  40.3  39.4 1007.8 31.8  1.026 -99.9 -99.99 -9.99
2019/12/05 16:36 EST    2.07   2.68   12  308   17  40.1  39.6 1008.0 31.8  1.026 -99.9 -99.99 -9.99
2019/12/05 16:42 EST    2.01   2.62   11  303   16  40.1  39.4 1008.2 31.9  1.026 -99.9 -99.99 -9.99
2019/12/05 16:48 EST    1.96   2.57    9  299   16  39.9  39.4 1008.4 31.9  1.026 -99.9 -99.99 -9.99
2019/12/05 16:54 EST    1.90   2.48   10  295   16  39.7  39.6 1008.6 31.9  1.026 -99.9 -99.99 -9.99
2019/12/05 17:00 EST    1.84   2.43    8  300   15  39.7  39.6 1008.7 31.9  1.026 -99.9 -99.99 -9.99
2019/12/05 17:06 EST    1.78   2.44   10  302   13  39.7  39.6 1008.9 31.9  1.026 -99.9 -99.99 -9.99
2019/12/05 17:12 EST    1.71   2.38   10  298   16  39.7  39.6 1009.1 31.8  1.026 -99.9 -99.99 -9.99
2019/12/05 17:18 EST    1.65   2.30   10  304   16  39.7  39.4 1009.3 31.8  1.026 -99.9 -99.99 -9.99
2019/12/05 17:24 EST    1.59   2.25   10  300   15  39.6  39.4 1009.4 31.9  1.026 -99.9 -99.99 -9.99
2019/12/05 17:30 EST    1.53   2.18    9  302   13  39.4  39.4 1009.6 31.8  1.026 -99.9 -99.99 -9.99
2019/12/05 17:36 EST    1.47   2.15    8  296   12  39.4  39.4 1009.8 31.8  1.026 -99.9 -99.99 -9.99
2019/12/05 17:42 EST    1.41   2.10    7  291   11  39.2  39.4 1010.0 31.8  1.026 -99.9 -99.99 -9.99
2019/12/05 17:48 EST    1.35   1.99    9  287   11  39.0  39.4 1010.1 31.8  1.026 -99.9 -99.99 -9.99
2019/12/05 17:54 EST    1.29   1.92    9  285   12  38.8  39.4 1010.3 31.8  1.026 -99.9 -99.99 -9.99
2019/12/05 18:00 EST    1.23   1.90    9  289   12  38.8  39.4 1010.4 31.8  1.026 -99.9 -99.99 -9.99
2019/12/05 18:06 EST    1.18   1.82    8  291   12  38.8  39.2 1010.5 31.8  1.026 -99.9 -99.99 -9.99
2019/12/05 18:12 EST    1.12   1.79   10  290   17  38.8  39.2 1010.6 31.8  1.026 -99.9 -99.99 -9.99
2019/12/05 18:18 EST    1.07   1.72   10  292   14  38.7  39.2 1010.8 31.8  1.026 -99.9 -99.99 -9.99
2019/12/05 18:24 EST    1.02   1.61    8  288   12  38.7  39.2 1010.9 31.9  1.026 -99.9 -99.99 -9.99
2019/12/05 18:30 EST    0.97   1.55    8  283   10  38.5  39.2 1011.0 31.9  1.026 -99.9 -99.99 -9.99
2019/12/05 18:36 EST    0.93   1.50    8  282   11  38.3  39.4 1011.1 31.8  1.026 -99.9 -99.99 -9.99
2019/12/05 18:42 EST    0.89   1.39    9  292   13  38.3  39.2 1011.1 31.9  1.026 -99.9 -99.99 -9.99
2019/12/05 18:48 EST    0.85   1.36   13  280   15  38.1  39.4 1011.2 31.8  1.026 -99.9 -99.99 -9.99
2019/12/05 18:54 EST    0.81   1.20   13  303   24  38.1  39.4 1011.4 31.8  1.026 -99.9 -99.99 -9.99
2019/12/05 19:00 EST    0.77   1.11   14  297   25  38.1  39.4 1011.3 31.9  1.026 -99.9 -99.99 -9.99
2019/12/05 19:06 EST    0.74   1.08   17  287   24  37.9  39.4 1011.2 31.8  1.026 -99.9 -99.99 -9.99
2019/12/05 19:12 EST    0.71   1.01   17  289   23  37.9  39.4 1011.2 31.9  1.026 -99.9 -99.99 -9.99
2019/12/05 19:18 EST    0.69   0.93   13  279   24  37.8  39.4 1011.3 31.8  1.026 -99.9 -99.99 -9.99
2019/12/05 19:24 EST    0.66   0.91   17  284   24  37.8  39.4 1011.3 31.8  1.026 -99.9 -99.99 -9.99
2019/12/05 19:30 EST    0.64   0.82   18  286   22  37.8  39.4 1011.3 31.8  1.026 -99.9 -99.99 -9.99
2019/12/05 19:36 EST    0.62   0.75   13  294   21  37.9  39.2 1011.6 31.9  1.026 -99.9 -99.99 -9.99
2019/12/05 19:42 EST    0.61   0.78   15  291   24  37.6  39.2 1011.6 31.9  1.026 -99.9 -99.99 -9.99
2019/12/05 19:48 EST    0.59   0.78   17  298   24  37.4  39.2 1011.7 31.9  1.026 -99.9 -99.99 -9.99
2019/12/05 19:54 EST    0.58   0.74   14  296   27  37.4  39.4 1011.8 31.8  1.026 -99.9 -99.99 -9.99
2019/12/05 20:00 EST    0.57   0.70   19  303   29  37.2  39.4 1011.7 31.8  1.026 -99.9 -99.99 -9.99
2019/12/05 20:06 EST    0.57   0.76   16  309   28  37.2  39.4 1011.9 31.8  1.026 -99.9 -99.99 -9.99
2019/12/05 20:12 EST    0.56   0.69   20  306   25  37.0  39.4 1011.9 31.8  1.026 -99.9 -99.99 -9.99
2019/12/05 20:18 EST    0.56   0.63   18  302   27  36.7  39.4 1012.1 31.8  1.026 -99.9 -99.99 -9.99
2019/12/05 20:24 EST    0.56   0.67   18  289   27  36.9  39.2 1012.2 31.9  1.026 -99.9 -99.99 -9.99
2019/12/05 20:30 EST    0.56   0.53   16  299   28  36.7  39.2 1012.3 31.9  1.026 -99.9 -99.99 -9.99
2019/12/05 20:36 EST    0.56   0.58   19  287   24  36.3  39.2 1012.2 31.8  1.026 -99.9 -99.99 -9.99
2019/12/05 20:42 EST    0.56   0.64   15  298   25  36.5  39.2 1012.5 31.8  1.026 -99.9 -99.99 -9.99
2019/12/05 20:48 EST    0.57   0.58   18  306   21  36.1  39.0 1012.6 31.8  1.026 -99.9 -99.99 -9.99
2019/12/05 20:54 EST    0.57   0.60   18  294   22  36.1  39.0 1012.6 31.8  1.026 -99.9 -99.99 -9.99
2019/12/05 21:00 EST    0.58   0.60   13  302   29  36.3  39.0 1012.7 31.8  1.026 -99.9 -99.99 -9.99
2019/12/05 21:06 EST    0.59   0.59   18  288   25  36.3  38.8 1012.7 31.8  1.026 -99.9 -99.99 -9.99
2019/12/05 21:12 EST    0.61   0.68   17  295   25  36.0  38.8 1012.8 31.8  1.026 -99.9 -99.99 -9.99
2019/12/05 21:18 EST    0.62   0.60   17  292   28  36.1  38.8 1013.1 31.8  1.026 -99.9 -99.99 -9.99
2019/12/05 21:24 EST    0.64   0.66   19  285   23  36.0  38.8 1013.1 31.7  1.026 -99.9 -99.99 -9.99
2019/12/05 21:30 EST    0.65   0.65   16  291   23  36.0  38.8 1013.2 31.8  1.026 -99.9 -99.99 -9.99
2019/12/05 21:36 EST    0.67   0.67   13  295   23  36.0  38.7 1013.3 31.8  1.026 -99.9 -99.99 -9.99
2019/12/05 21:42 EST    0.69   0.72   13  287   18  36.0  38.7 1013.4 31.8  1.026 -99.9 -99.99 -9.99
2019/12/05 21:48 EST    0.72   0.78   12  293   17  35.8  38.8 1013.6 31.8  1.026 -99.9 -99.99 -9.99
2019/12/05 21:54 EST    0.74   0.83   16  291   23  36.0  38.8 1013.6 31.8  1.026 -99.9 -99.99 -9.99
2019/12/05 22:00 EST    0.77   0.82   13  299   22  35.8  38.8 1013.7 31.8  1.026 -99.9 -99.99 -9.99
2019/12/05 22:06 EST    0.80   0.83   17  288   22  35.6  38.7 1013.7 31.9  1.026 -99.9 -99.99 -9.99
2019/12/05 22:12 EST    0.83   0.85   18  286   21  35.4  38.7 1013.7 31.8  1.026 -99.9 -99.99 -9.99
2019/12/05 22:18 EST    0.86   0.93   18  284   22  35.4  38.5 1013.8 31.9  1.026 -99.9 -99.99 -9.99
2019/12/05 22:24 EST    0.90   0.95   14  292   24  35.4  38.5 1013.9 31.9  1.026 -99.9 -99.99 -9.99
2019/12/05 22:30 EST    0.94   1.07   17  287   24  35.2  38.7 1014.0 31.7  1.026 -99.9 -99.99 -9.99
2019/12/05 22:36 EST    0.98   1.16   17  286   22  35.2  38.5 1014.1 31.8  1.026 -99.9 -99.99 -9.99
2019/12/05 22:42 EST    1.02   1.14   15  292   20  35.2  38.5 1014.2 31.8  1.026 -99.9 -99.99 -9.99
2019/12/05 22:48 EST    1.06   1.24   10  298   21  35.2  38.5 1014.4 31.8  1.026 -99.9 -99.99 -9.99
2019/12/05 22:54 EST    1.11   1.28   15  288   21  35.1  38.5 1014.5 31.7  1.026 -99.9 -99.99 -9.99
2019/12/05 23:00 EST    1.15   1.36   15  289   19  35.4  38.3 1014.7 31.8  1.026 -99.9 -99.99 -9.99
2019/12/05 23:06 EST    1.20   1.40   16  292   24  35.1  38.3 1014.8 31.8  1.026 -99.9 -99.99 -9.99
2019/12/05 23:12 EST    1.25   1.48   12  296   20  35.1  38.3 1015.0 31.6  1.026 -99.9 -99.99 -9.99
2019/12/05 23:18 EST    1.31   1.55   10  297   18  34.9  38.3 1015.1 31.7  1.026 -99.9 -99.99 -9.99
2019/12/05 23:24 EST    1.36   1.55   13  284   17  34.9  38.3 1015.2 31.7  1.026 -99.9 -99.99 -9.99
2019/12/05 23:30 EST    1.41   1.70   14  290   19  34.9  38.3 1015.3 31.7  1.026 -99.9 -99.99 -9.99
2019/12/05 23:36 EST    1.47   1.70   13  298   20  34.7  38.3 1015.4 31.7  1.026 -99.9 -99.99 -9.99
2019/12/05 23:42 EST    1.53   1.76   12  310   18  34.9  38.3 1015.4 31.7  1.026 -99.9 -99.99 -9.99
2019/12/05 23:48 EST    1.59   1.84   14  312   18  34.5  38.3 1015.4 31.7  1.026 -99.9 -99.99 -9.99
2019/12/05 23:54 EST    1.65   1.88   11  301   18  34.3  38.3 1015.6 31.7  1.026 -99.9 -99.99 -9.99
2019/12/06 00:00 EST    1.71   1.95   10  309   16  34.5  38.3 1015.8 31.7  1.026 -99.9 -99.99 -9.99
2019/12/06 00:06 EST    1.77   2.01   12  314   15  34.2  38.3 1015.9 31.6  1.026 -99.9 -99.99 -9.99
2019/12/06 00:12 EST    1.83   2.09    8  295   15  34.2  38.3 1016.1 31.7  1.026 -99.9 -99.99 -9.99
2019/12/06 00:18 EST    1.89   2.12    8  305   16  34.2  38.3 1016.1 31.7  1.026 -99.9 -99.99 -9.99
2019/12/06 00:24 EST    1.95   2.25   10  311   16  34.2  38.3 1016.1 31.7  1.026 -99.9 -99.99 -9.99
2019/12/06 00:30 EST    2.01   2.27   12  317   16  33.8  38.3 1016.2 31.7  1.026 -99.9 -99.99 -9.99
2019/12/06 00:36 EST    2.07   2.29   13  307   19  33.8  38.3 1016.3 31.6  1.026 -99.9 -99.99 -9.99
2019/12/06 00:42 EST    2.13   2.37   11  311   17  33.8  38.3 1016.4 31.7  1.026 -99.9 -99.99 -9.99
2019/12/06 00:48 EST    2.18   2.31   13  314   17  33.6  38.3 1016.4 31.7  1.026 -99.9 -99.99 -9.99
2019/12/06 00:54 EST    2.24   2.38   12  316   17  33.6  38.7 1016.5 31.7  1.026 -99.9 -99.99 -9.99
2019/12/06 01:00 EST    2.30   2.49   10  308   14  33.6  38.5 1016.7 31.6  1.026 -99.9 -99.99 -9.99
2019/12/06 01:06 EST    2.35   2.51   11  311   15  33.3  38.3 1016.7 31.7  1.026 -99.9 -99.99 -9.99
2019/12/06 01:12 EST    2.40   2.55   10  312   14  33.4  38.1 1016.7 31.6  1.026 -99.9 -99.99 -9.99
2019/12/06 01:18 EST    2.46   2.60   10  303   12  33.3  37.9 1016.8 31.5  1.026 -99.9 -99.99 -9.99
2019/12/06 01:24 EST    2.50   2.65    9  291   13  33.1  37.9 1017.0 31.6  1.026 -99.9 -99.99 -9.99
2019/12/06 01:30 EST    2.55   2.67    8  291   12  33.1  37.9 1017.0 31.5  1.026 -99.9 -99.99 -9.99
2019/12/06 01:36 EST    2.60   2.70   10  286   13  32.9  38.1 1017.1 31.7  1.026 -99.9 -99.99 -9.99
2019/12/06 01:42 EST    2.64   2.74   13  290   15  32.9  37.9 1017.2 31.5  1.026 -99.9 -99.99 -9.99
2019/12/06 01:48 EST    2.68   2.76   12  290   16  32.9  38.3 1017.4 31.5  1.026 -99.9 -99.99 -9.99
2019/12/06 01:54 EST    2.71   2.81   11  296   19  32.9  38.3 1017.4 31.7  1.026 -99.9 -99.99 -9.99
2019/12/06 02:00 EST    2.75   2.86   14  286   18  32.7  38.5 1017.7 31.7  1.026 -99.9 -99.99 -9.99
2019/12/06 02:06 EST    2.78   2.86   10  294   17  32.7  38.3 1017.8 31.6  1.026 -99.9 -99.99 -9.99
2019/12/06 02:12 EST    2.81   2.87   12  287   15  32.9  38.3 1017.9 31.7  1.026 -99.9 -99.99 -9.99
2019/12/06 02:18 EST    2.83   2.85   15  281   18  32.7  38.3 1017.9 31.7  1.026 -99.9 -99.99 -9.99
2019/12/06 02:24 EST    2.85   2.84   14  287   17  32.5  38.1 1018.0 31.5  1.026 -99.9 -99.99 -9.99
2019/12/06 02:30 EST    2.87   2.82   15  283   20  32.7  37.8 1017.9 31.6  1.026 -99.9 -99.99 -9.99
2019/12/06 02:36 EST    2.89   2.86   15  288   20  32.7  37.9 1018.1 31.5  1.026 -99.9 -99.99 -9.99
2019/12/06 02:42 EST    2.90   2.84   13  281   19  32.5  37.8 1018.2 31.6  1.026 -99.9 -99.99 -9.99
2019/12/06 02:48 EST    2.91   2.78   14  294   19  32.4  37.8 1018.3 31.5  1.026 -99.9 -99.99 -9.99
2019/12/06 02:54 EST    2.92   2.80   12  281   17  32.5  37.8 1018.4 31.6  1.026 -99.9 -99.99 -9.99
2019/12/06 03:00 EST    2.92   2.82   14  278   17  32.4  37.9 1018.5 31.6  1.026 -99.9 -99.99 -9.99
2019/12/06 03:06 EST    2.92   2.76   14  279   16  32.4  38.1 1018.5 31.8  1.026 -99.9 -99.99 -9.99
2019/12/06 03:12 EST    2.92   2.75   12  275   16  32.4  38.5 1018.5 31.8  1.026 -99.9 -99.99 -9.99
2019/12/06 03:18 EST    2.91   2.75   11  276   15  32.2  38.5 1018.6 31.7  1.026 -99.9 -99.99 -9.99
2019/12/06 03:24 EST    2.91   2.71   11  281   15  32.2  38.1 1018.5 31.7  1.026 -99.9 -99.99 -9.99
2019/12/06 03:30 EST    2.89   2.72   11  279   14  32.0  37.9 1018.6 31.7  1.026 -99.9 -99.99 -9.99
2019/12/06 03:36 EST    2.88   2.70   10  277   15  32.2  37.8 1018.6 31.6  1.026 -99.9 -99.99 -9.99
2019/12/06 03:42 EST    2.86   2.66    9  285   13  32.4  37.8 1018.7 31.6  1.026 -99.9 -99.99 -9.99
2019/12/06 03:48 EST    2.84   2.62   11  284   16  32.4  37.8 1018.8 31.6  1.026 -99.9 -99.99 -9.99
2019/12/06 03:54 EST    2.82   2.58    9  291   13  32.4  37.8 1018.7 31.6  1.026 -99.9 -99.99 -9.99
2019/12/06 04:00 EST    2.79   2.56    8  294   14  32.5  37.8 1018.7 31.6  1.026 -99.9 -99.99 -9.99
2019/12/06 04:06 EST    2.76   2.55   11  286   13  32.2  37.8 1018.7 31.6  1.026 -99.9 -99.99 -9.99
2019/12/06 04:12 EST    2.73   2.55    9  282   12  31.8  37.8 1018.7 31.6  1.026 -99.9 -99.99 -9.99
2019/12/06 04:18 EST    2.70   2.52   11  275   13  32.2  37.8 1018.8 31.6  1.026 -99.9 -99.99 -9.99
2019/12/06 04:24 EST    2.66   2.47    8  287   14  32.0  37.8 1018.6 31.5  1.026 -99.9 -99.99 -9.99
2019/12/06 04:30 EST    2.62   2.50   10  274   12  32.2  37.8 1018.8 31.6  1.026 -99.9 -99.99 -9.99
2019/12/06 04:36 EST    2.58   2.43    8  262   13  32.2  37.8 1018.8 31.5  1.026 -99.9 -99.99 -9.99
2019/12/06 04:42 EST    2.53   2.32    8  261   11  32.0  37.6 1018.8 31.6  1.026 -99.9 -99.99 -9.99
2019/12/06 04:48 EST    2.49   2.33    9  280   11  31.8  37.6 1018.9 31.6  1.026 -99.9 -99.99 -9.99
2019/12/06 04:54 EST    2.44   2.26    9  274   12  32.0  37.6 1019.1 31.6  1.026 -99.9 -99.99 -9.99
2019/12/06 05:00 EST    2.39   2.21    7  274   11  31.8  37.6 1019.2 31.6  1.026 -99.9 -99.99 -9.99
2019/12/06 05:06 EST    2.33   2.18    7  270   10  32.0  37.6 1019.3 31.6  1.026 -99.9 -99.99 -9.99
2019/12/06 05:12 EST    2.28   2.19    6  277    8  31.8  37.6 1019.2 31.6  1.026 -99.9 -99.99 -9.99
2019/12/06 05:18 EST    2.22   2.13    7  270    9  31.6  37.6 1019.4 31.6  1.026 -99.9 -99.99 -9.99
2019/12/06 05:24 EST    2.16   2.04    9  258   10  32.2  37.6 1019.5 31.6  1.026 -99.9 -99.99 -9.99
2019/12/06 05:30 EST    2.10   2.05    8  268   11  32.0  37.6 1019.4 31.6  1.026 -99.9 -99.99 -9.99
2019/12/06 05:36 EST    2.04   1.90    8  269   11  32.2  37.6 1019.4 31.6  1.026 -99.9 -99.99 -9.99
2019/12/06 05:42 EST    1.98   1.90    8  266   13  32.2  37.6 1019.5 31.6  1.026 -99.9 -99.99 -9.99
2019/12/06 05:48 EST    1.91   1.91    9  257   12  32.0  37.6 1019.6 31.6  1.026 -99.9 -99.99 -9.99
2019/12/06 05:54 EST    1.85   1.76    7  260   11  32.0  37.6 1019.3 31.6  1.026 -99.9 -99.99 -9.99
2019/12/06 06:00 EST    1.79   1.76    8  235    9  32.0  37.6 1019.0 31.6  1.026 -99.9 -99.99 -9.99
2019/12/06 06:06 EST    1.73   1.74    7  248    9  32.0  37.6 1019.2 31.6  1.026 -99.9 -99.99 -9.99
2019/12/06 06:12 EST    1.66   1.68    8  238    9  32.5  37.6 1019.2 31.6  1.026 -99.9 -99.99 -9.99
2019/12/06 06:18 EST    1.60   1.64    8  242   10  32.7  37.6 1019.2 31.6  1.026 -99.9 -99.99 -9.99
2019/12/06 06:24 EST    1.54   1.68    8  255   10  32.9  37.6 1019.3 31.6  1.026 -99.9 -99.99 -9.99
2019/12/06 06:30 EST    1.48   1.56   10  254   11  33.1  37.6 1019.5 31.5  1.026 -99.9 -99.99 -9.99
2019/12/06 06:36 EST    1.42   1.55   10  256   12  33.1  37.6 1019.6 31.6  1.026 -99.9 -99.99 -9.99
2019/12/06 06:42 EST    1.37   1.62   10  259   14  32.9  37.4 1019.7 31.6  1.026 -99.9 -99.99 -9.99
2019/12/06 06:48 EST    1.31   1.39    9  260   12  32.9  37.6 1019.9 31.6  1.026 -99.9 -99.99 -9.99
2019/12/06 06:54 EST    1.26   1.46   10  270   12  32.7  37.6 1020.0 31.5  1.026 -99.9 -99.99 -9.99
2019/12/06 07:00 EST    1.21   1.50    8  270   12  32.7  37.6 1020.0 31.6  1.026 -99.9 -99.99 -9.99
2019/12/06 07:06 EST    1.16   1.24    7  259   11  32.7  37.6 1019.9 31.6  1.026 -99.9 -99.99 -9.99
2019/12/06 07:12 EST    1.11   1.37    8  253   10  33.1  37.6 1020.0 31.6  1.026 -99.9 -99.99 -9.99
2019/12/06 07:18 EST    1.07   1.33    9  246   11  32.9  37.6 1019.9 31.6  1.026 -99.9 -99.99 -9.99
2019/12/06 07:24 EST    1.03   1.23    7  249   11  33.3  37.6 1019.9 31.7  1.026 -99.9 -99.99 -9.99
2019/12/06 07:30 EST    0.99   1.34    8  248   10  33.3  37.8 1020.0 31.6  1.026 -99.9 -99.99 -9.99
2019/12/06 07:36 EST    0.95   1.25    7  237    9  33.4  37.8 1019.9 31.6  1.026 -99.9 -99.99 -9.99
2019/12/06 07:42 EST    0.92   1.22    8  252    9  33.1  37.8 1020.0 31.6  1.026 -99.9 -99.99 -9.99
2019/12/06 07:48 EST    0.89   1.23    8  245   10  33.4  37.9 1020.2 31.6  1.026 -99.9 -99.99 -9.99
2019/12/06 07:54 EST    0.86   1.16    9  245   11  33.4  37.8 1020.2 31.6  1.026 -99.9 -99.99 -9.99
2019/12/06 08:00 EST    0.83   1.17    9  240   12  33.6  37.8 1020.2 31.6  1.026 -99.9 -99.99 -9.99
2019/12/06 08:06 EST    0.81   1.07    9  245   12  33.6  37.9 1020.2 31.6  1.026 -99.9 -99.99 -9.99
2019/12/06 08:12 EST    0.79   1.10   10  244   12  33.6  37.6 1020.3 31.6  1.026 -99.9 -99.99 -9.99
2019/12/06 08:18 EST    0.77   1.14   10  249   12  33.4  37.6 1020.3 31.6  1.026 -99.9 -99.99 -9.99
2019/12/06 08:24 EST    0.75   1.15    9  247   12  33.6  37.6 1020.3 31.6  1.026 -99.9 -99.99 -9.99
2019/12/06 08:30 EST    0.73   1.14    9  243   11  34.0  37.8 1020.3 31.7  1.026 -99.9 -99.99 -9.99
2019/12/06 08:36 EST    0.72   1.19    8  238   11  34.2  37.9 1020.2 31.7  1.026 -99.9 -99.99 -9.99
2019/12/06 08:42 EST    0.71   1.02    9  246   10  34.0  37.9 1020.2 31.7  1.026 -99.9 -99.99 -9.99
2019/12/06 08:48 EST    0.70   0.99    8  255    9  34.0  37.9 1020.2 31.6  1.026 -99.9 -99.99 -9.99
2019/12/06 08:54 EST    0.69   1.10    8  250   10  34.0  37.9 1020.2 31.7  1.026 -99.9 -99.99 -9.99
2019/12/06 09:00 EST    0.69   0.98    9  242   11  34.3  38.1 1020.2 31.7  1.026 -99.9 -99.99 -9.99
2019/12/06 09:06 EST    0.68   1.09    8  236   10  34.3  38.1 1020.3 31.7  1.026 -99.9 -99.99 -9.99
2019/12/06 09:12 EST    0.68   1.07    8  247   11  34.2  38.1 1020.3 31.7  1.026 -99.9 -99.99 -9.99
2019/12/06 09:18 EST    0.68   0.95    9  246   10  34.3  38.1 1020.4 31.7  1.026 -99.9 -99.99 -9.99
2019/12/06 09:24 EST    0.68   1.17    8  235   10  34.3  38.1 1020.4 31.7  1.026 -99.9 -99.99 -9.99
2019/12/06 09:30 EST    0.69   1.03    8  241   11  34.3  38.1 1020.5 31.8  1.026 -99.9 -99.99 -9.99
2019/12/06 09:36 EST    0.69   0.98    8  240    9  34.5  38.1 1020.5 31.7  1.026 -99.9 -99.99 -9.99
2019/12/06 09:42 EST    0.70   1.04    7  243    9  34.5  38.3 1020.4 31.7  1.026 -99.9 -99.99 -9.99
2019/12/06 09:48 EST    0.71   0.97    7  237    9  34.7  38.3 1020.3 31.7  1.026 -99.9 -99.99 -9.99
2019/12/06 09:54 EST    0.72   1.05    6  231    9  34.9  38.1 1020.3 31.7  1.026 -99.9 -99.99 -9.99
2019/12/06 10:00 EST    0.73   1.12    9  226   11  34.9  38.1 1020.0 31.7  1.026 -99.9 -99.99 -9.99
2019/12/06 10:06 EST    0.75   1.05    8  231   11  35.1  38.1 1019.8 31.7  1.026 -99.9 -99.99 -9.99
2019/12/06 10:12 EST    0.77   1.06    7  234    9  35.2  38.1 1019.7 31.7  1.026 -99.9 -99.99 -9.99
2019/12/06 10:18 EST    0.79   1.12    7  222    9  35.6  38.3 1019.6 31.7  1.026 -99.9 -99.99 -9.99
2019/12/06 10:24 EST    0.81   1.04    7  226   11  35.6  38.1 1019.6 31.7  1.026 -99.9 -99.99 -9.99
2019/12/06 10:30 EST    0.83   1.05    8  229    9  35.8  38.1 1019.5 31.7  1.026 -99.9 -99.99 -9.99
2019/12/06 10:36 EST    0.86   1.15    7  221   10  35.6  38.1 1019.2 31.7  1.026 -99.9 -99.99 -9.99
2019/12/06 10:42 EST    0.88   1.16    7  229    9  35.8  38.1 1019.3 31.7  1.026 -99.9 -99.99 -9.99
2019/12/06 10:48 EST    0.91   1.24    8  240    9  35.8  38.1 1019.3 31.6  1.026 -99.9 -99.99 -9.99
2019/12/06 10:54 EST    0.95   1.17    8  240   10  35.8  38.1 1019.1 31.7  1.026 -99.9 -99.99 -9.99
2019/12/06 11:00 EST    0.98   1.20    8  252   10  35.8  38.1 1019.2 31.7  1.026 -99.9 -99.99 -9.99
2019/12/06 11:06 EST    1.02   1.32    7  262   10  36.0  38.3 1019.1 31.7  1.026 -99.9 -99.99 -9.99
2019/12/06 11:12 EST    1.06   1.25    6  260    8  36.0  38.3 1018.8 31.6  1.026 -99.9 -99.99 -9.99
2019/12/06 11:18 EST    1.10   1.27    8  247   10  36.3  38.3 1018.7 31.6  1.026 -99.9 -99.99 -9.99
2019/12/06 11:24 EST    1.14   1.23    8  247   11  36.5  38.3 1018.6 31.7  1.026 -99.9 -99.99 -9.99
2019/12/06 11:30 EST    1.18   1.36    9  250   11  36.7  38.3 1018.4 31.7  1.026 -99.9 -99.99 -9.99
2019/12/06 11:36 EST    1.23   1.49    9  247   11  36.9  38.5 1018.3 31.7  1.026 -99.9 -99.99 -9.99
2019/12/06 11:42 EST    1.28   1.49   11  240   12  37.4  38.5 1018.1 31.7  1.026 -99.9 -99.99 -9.99
2019/12/06 11:48 EST    1.32   1.59    9  232   13  37.4  38.7 1017.9 31.8  1.026 -99.9 -99.99 -9.99
2019/12/06 11:54 EST    1.37   1.52    9  223   12  37.6  38.7 1017.8 31.8  1.026 -99.9 -99.99 -9.99
2019/12/06 12:00 EST    1.43   1.56   11  226   14  38.1  38.7 1017.5 31.8  1.026 -99.9 -99.99 -9.99
2019/12/06 12:06 EST    1.48   1.73   11  222   12  38.1  38.8 1017.2 31.7  1.026 -99.9 -99.99 -9.99
2019/12/06 12:12 EST    1.53   1.71   12  225   14  38.5  38.8 1017.2 31.8  1.026 -99.9 -99.99 -9.99
2019/12/06 12:18 EST    1.58   1.80   15  222   22  38.8  38.8 1017.2 31.8  1.026 -99.9 -99.99 -9.99
2019/12/06 12:24 EST    1.64   1.90   15  224   20  38.8  38.8 1017.3 31.8  1.026 -99.9 -99.99 -9.99
2019/12/06 12:30 EST    1.69 -99.99 -999 -999 -999 -99.9 -99.9 -999.9 -9.9 -9.999 -99.9 -99.99 -9.99
2019/12/06 12:36 EST    1.75 -99.99 -999 -999 -999 -99.9 -99.9 -999.9 -9.9 -9.999 -99.9 -99.99 -9.99
2019/12/06 12:42 EST    1.80 -99.99 -999 -999 -999 -99.9 -99.9 -999.9 -9.9 -9.999 -99.9 -99.99 -9.99